<?xml version="1.0" encoding="UTF-8" standalone="no" ?>
<gpx xmlns="http://www.topografix.com/GPX/1/1" xmlns:xsi="http://www.w3.org/2001/XMLSchema-instance" xsi:schemaLocation="http://www.topografix.com/GPX/1/1 http://www.topografix.com/GPX/1/1/gpx.xsd" version="1.1" creator="VisuGPX - https://www.visugpx.com">
  <metadata>
    <name>Marathon Grésivaudan 14juin2020</name>
    <desc><![CDATA[tracé prévisionnel de la 3ième édition]]></desc>
  </metadata>
  <wpt lat="45.21627" lon="5.84483">
    <ele>216.2</ele>
    <name><![CDATA[Départ]]></name>
  </wpt>
  <wpt lat="45.22082" lon="5.86102">
    <ele>220.7</ele>
    <name><![CDATA[Arrivée]]></name>
    <type><![CDATA[picnic]]></type>
  </wpt>
  <trk>
    <name><![CDATA[Monnewparcours]]></name>
    <trkseg>
      <trkpt lat="45.21548" lon="5.84481">
        <ele>216.5</ele>
        <time>2019-10-25T06:25:00.000Z</time>
      </trkpt>
      <trkpt lat="45.22106" lon="5.85226">
        <ele>218.5</ele>
        <time>2019-10-25T06:31:23.042Z</time>
      </trkpt>
      <trkpt lat="45.22079" lon="5.85282">
        <ele>218</ele>
        <time>2019-10-25T06:31:47.019Z</time>
      </trkpt>
      <trkpt lat="45.2197" lon="5.85217">
        <ele>218.4</ele>
        <time>2019-10-25T06:32:46.005Z</time>
      </trkpt>
      <trkpt lat="45.21942" lon="5.85243">
        <ele>218.7</ele>
        <time>2019-10-25T06:33:02.361Z</time>
      </trkpt>
      <trkpt lat="45.21904" lon="5.85272">
        <ele>220</ele>
        <time>2019-10-25T06:33:24.378Z</time>
      </trkpt>
      <trkpt lat="45.2189" lon="5.85264">
        <ele>219.1</ele>
        <time>2019-10-25T06:33:31.676Z</time>
      </trkpt>
      <trkpt lat="45.21784" lon="5.85122">
        <ele>218.7</ele>
        <time>2019-10-25T06:34:44.603Z</time>
      </trkpt>
      <trkpt lat="45.21773" lon="5.85133">
        <ele>218.6</ele>
        <time>2019-10-25T06:34:51.336Z</time>
      </trkpt>
      <trkpt lat="45.2176" lon="5.8514">
        <ele>218.4</ele>
        <time>2019-10-25T06:34:58.293Z</time>
      </trkpt>
      <trkpt lat="45.21753" lon="5.85137">
        <ele>218.4</ele>
        <time>2019-10-25T06:35:01.952Z</time>
      </trkpt>
      <trkpt lat="45.21699" lon="5.85065">
        <ele>219.7</ele>
        <time>2019-10-25T06:35:39.022Z</time>
      </trkpt>
      <trkpt lat="45.21687" lon="5.85079">
        <ele>219.8</ele>
        <time>2019-10-25T06:35:46.794Z</time>
      </trkpt>
      <trkpt lat="45.21673" lon="5.85083">
        <ele>219.9</ele>
        <time>2019-10-25T06:35:53.940Z</time>
      </trkpt>
      <trkpt lat="45.21662" lon="5.8508">
        <ele>220</ele>
        <time>2019-10-25T06:35:59.545Z</time>
      </trkpt>
      <trkpt lat="45.21651" lon="5.8507">
        <ele>220.2</ele>
        <time>2019-10-25T06:36:06.081Z</time>
      </trkpt>
      <trkpt lat="45.21582" lon="5.84955">
        <ele>220.5</ele>
        <time>2019-10-25T06:36:59.327Z</time>
      </trkpt>
      <trkpt lat="45.21575" lon="5.84952">
        <ele>220.4</ele>
        <time>2019-10-25T06:37:02.986Z</time>
      </trkpt>
      <trkpt lat="45.21566" lon="5.84955">
        <ele>220.3</ele>
        <time>2019-10-25T06:37:07.612Z</time>
      </trkpt>
      <trkpt lat="45.21561" lon="5.84961">
        <ele>220.4</ele>
        <time>2019-10-25T06:37:10.888Z</time>
      </trkpt>
      <trkpt lat="45.21561" lon="5.84961">
        <ele>220.4</ele>
        <time>2019-10-25T06:37:10.888Z</time>
      </trkpt>
      <trkpt lat="45.21558" lon="5.84964">
        <ele>220.4</ele>
        <time>2019-10-25T06:37:12.724Z</time>
      </trkpt>
      <trkpt lat="45.21552" lon="5.84995">
        <ele>220.9</ele>
        <time>2019-10-25T06:37:24.056Z</time>
      </trkpt>
      <trkpt lat="45.21541" lon="5.85014">
        <ele>220.8</ele>
        <time>2019-10-25T06:37:32.725Z</time>
      </trkpt>
      <trkpt lat="45.21526" lon="5.85032">
        <ele>220.6</ele>
        <time>2019-10-25T06:37:42.553Z</time>
      </trkpt>
      <trkpt lat="45.21492" lon="5.84978">
        <ele>220.3</ele>
        <time>2019-10-25T06:38:08.082Z</time>
      </trkpt>
      <trkpt lat="45.21197" lon="5.84519">
        <ele>220.5</ele>
        <time>2019-10-25T06:41:47.097Z</time>
      </trkpt>
      <trkpt lat="45.21022" lon="5.84236">
        <ele>218.7</ele>
        <time>2019-10-25T06:43:59.838Z</time>
      </trkpt>
      <trkpt lat="45.21024" lon="5.84232">
        <ele>218.8</ele>
        <time>2019-10-25T06:44:01.567Z</time>
      </trkpt>
      <trkpt lat="45.21027" lon="5.84216">
        <ele>219.3</ele>
        <time>2019-10-25T06:44:07.404Z</time>
      </trkpt>
      <trkpt lat="45.21026" lon="5.84205">
        <ele>219.6</ele>
        <time>2019-10-25T06:44:11.314Z</time>
      </trkpt>
      <trkpt lat="45.21022" lon="5.84199">
        <ele>219.9</ele>
        <time>2019-10-25T06:44:14.226Z</time>
      </trkpt>
      <trkpt lat="45.21009" lon="5.84192">
        <ele>220.5</ele>
        <time>2019-10-25T06:44:21.183Z</time>
      </trkpt>
      <trkpt lat="45.21" lon="5.84184">
        <ele>221.2</ele>
        <time>2019-10-25T06:44:26.497Z</time>
      </trkpt>
      <trkpt lat="45.20992" lon="5.84171">
        <ele>221.7</ele>
        <time>2019-10-25T06:44:32.582Z</time>
      </trkpt>
      <trkpt lat="45.20988" lon="5.84155">
        <ele>221.9</ele>
        <time>2019-10-25T06:44:38.567Z</time>
      </trkpt>
      <trkpt lat="45.20986" lon="5.8414">
        <ele>222</ele>
        <time>2019-10-25T06:44:43.949Z</time>
      </trkpt>
      <trkpt lat="45.20986" lon="5.84131">
        <ele>222</ele>
        <time>2019-10-25T06:44:47.122Z</time>
      </trkpt>
      <trkpt lat="45.20987" lon="5.8411">
        <ele>222.2</ele>
        <time>2019-10-25T06:44:54.542Z</time>
      </trkpt>
      <trkpt lat="45.21003" lon="5.84043">
        <ele>221</ele>
        <time>2019-10-25T06:45:19.481Z</time>
      </trkpt>
      <trkpt lat="45.21003" lon="5.84043">
        <ele>221</ele>
        <time>2019-10-25T06:45:19.481Z</time>
      </trkpt>
      <trkpt lat="45.21008" lon="5.84019">
        <ele>220.4</ele>
        <time>2019-10-25T06:45:28.304Z</time>
      </trkpt>
      <trkpt lat="45.21019" lon="5.84012">
        <ele>220.2</ele>
        <time>2019-10-25T06:45:34.336Z</time>
      </trkpt>
      <trkpt lat="45.2104" lon="5.84014">
        <ele>220.1</ele>
        <time>2019-10-25T06:45:44.868Z</time>
      </trkpt>
      <trkpt lat="45.21062" lon="5.84022">
        <ele>219.9</ele>
        <time>2019-10-25T06:45:56.232Z</time>
      </trkpt>
      <trkpt lat="45.21111" lon="5.84063">
        <ele>218.7</ele>
        <time>2019-10-25T06:46:24.693Z</time>
      </trkpt>
      <trkpt lat="45.21139" lon="5.84076">
        <ele>218.3</ele>
        <time>2019-10-25T06:46:39.434Z</time>
      </trkpt>
      <trkpt lat="45.21223" lon="5.84082">
        <ele>217.3</ele>
        <time>2019-10-25T06:47:21.519Z</time>
      </trkpt>
      <trkpt lat="45.21277" lon="5.84073">
        <ele>216.8</ele>
        <time>2019-10-25T06:47:48.725Z</time>
      </trkpt>
      <trkpt lat="45.21311" lon="5.84065">
        <ele>216.6</ele>
        <time>2019-10-25T06:48:05.970Z</time>
      </trkpt>
      <trkpt lat="45.21391" lon="5.84016">
        <ele>218.4</ele>
        <time>2019-10-25T06:48:49.568Z</time>
      </trkpt>
      <trkpt lat="45.21419" lon="5.84005">
        <ele>218.9</ele>
        <time>2019-10-25T06:49:04.105Z</time>
      </trkpt>
      <trkpt lat="45.21429" lon="5.84004">
        <ele>218.7</ele>
        <time>2019-10-25T06:49:09.121Z</time>
      </trkpt>
      <trkpt lat="45.21446" lon="5.84011">
        <ele>218.2</ele>
        <time>2019-10-25T06:49:17.978Z</time>
      </trkpt>
      <trkpt lat="45.21489" lon="5.84024">
        <ele>217.2</ele>
        <time>2019-10-25T06:49:39.977Z</time>
      </trkpt>
      <trkpt lat="45.21508" lon="5.8403">
        <ele>217.1</ele>
        <time>2019-10-25T06:49:49.717Z</time>
      </trkpt>
      <trkpt lat="45.21513" lon="5.8404">
        <ele>217.2</ele>
        <time>2019-10-25T06:49:54.040Z</time>
      </trkpt>
      <trkpt lat="45.21531" lon="5.84058">
        <ele>217.4</ele>
        <time>2019-10-25T06:50:05.057Z</time>
      </trkpt>
      <trkpt lat="45.21544" lon="5.8407">
        <ele>217.5</ele>
        <time>2019-10-25T06:50:12.816Z</time>
      </trkpt>
      <trkpt lat="45.2156" lon="5.84077">
        <ele>217.7</ele>
        <time>2019-10-25T06:50:21.194Z</time>
      </trkpt>
      <trkpt lat="45.21567" lon="5.84077">
        <ele>217.8</ele>
        <time>2019-10-25T06:50:24.697Z</time>
      </trkpt>
      <trkpt lat="45.21562" lon="5.84049">
        <ele>217.7</ele>
        <time>2019-10-25T06:50:34.879Z</time>
      </trkpt>
      <trkpt lat="45.2155" lon="5.83998">
        <ele>217.7</ele>
        <time>2019-10-25T06:50:53.832Z</time>
      </trkpt>
      <trkpt lat="45.21546" lon="5.83967">
        <ele>218.8</ele>
        <time>2019-10-25T06:51:04.941Z</time>
      </trkpt>
      <trkpt lat="45.21545" lon="5.8395">
        <ele>219.4</ele>
        <time>2019-10-25T06:51:10.954Z</time>
      </trkpt>
      <trkpt lat="45.21549" lon="5.83845">
        <ele>220.8</ele>
        <time>2019-10-25T06:51:48.019Z</time>
      </trkpt>
      <trkpt lat="45.21552" lon="5.83823">
        <ele>220.6</ele>
        <time>2019-10-25T06:51:55.918Z</time>
      </trkpt>
      <trkpt lat="45.21558" lon="5.83806">
        <ele>220.4</ele>
        <time>2019-10-25T06:52:02.620Z</time>
      </trkpt>
      <trkpt lat="45.21566" lon="5.83792">
        <ele>220.2</ele>
        <time>2019-10-25T06:52:08.974Z</time>
      </trkpt>
      <trkpt lat="45.21566" lon="5.83792">
        <ele>220.2</ele>
        <time>2019-10-25T06:52:08.974Z</time>
      </trkpt>
      <trkpt lat="45.2157" lon="5.83785">
        <ele>220.1</ele>
        <time>2019-10-25T06:52:12.151Z</time>
      </trkpt>
      <trkpt lat="45.21585" lon="5.83756">
        <ele>219.2</ele>
        <time>2019-10-25T06:52:24.833Z</time>
      </trkpt>
      <trkpt lat="45.21601" lon="5.83698">
        <ele>218.6</ele>
        <time>2019-10-25T06:52:46.789Z</time>
      </trkpt>
      <trkpt lat="45.21606" lon="5.83691">
        <ele>218.6</ele>
        <time>2019-10-25T06:52:50.303Z</time>
      </trkpt>
      <trkpt lat="45.21611" lon="5.83683">
        <ele>218.7</ele>
        <time>2019-10-25T06:52:54.073Z</time>
      </trkpt>
      <trkpt lat="45.21602" lon="5.83664">
        <ele>218.5</ele>
        <time>2019-10-25T06:53:02.143Z</time>
      </trkpt>
      <trkpt lat="45.21565" lon="5.83571">
        <ele>220</ele>
        <time>2019-10-25T06:53:39.791Z</time>
      </trkpt>
      <trkpt lat="45.21535" lon="5.83506">
        <ele>220.5</ele>
        <time>2019-10-25T06:54:07.182Z</time>
      </trkpt>
      <trkpt lat="45.21509" lon="5.83464">
        <ele>220.9</ele>
        <time>2019-10-25T06:54:26.891Z</time>
      </trkpt>
      <trkpt lat="45.21418" lon="5.83348">
        <ele>218.4</ele>
        <time>2019-10-25T06:55:28.090Z</time>
      </trkpt>
      <trkpt lat="45.21375" lon="5.83306">
        <ele>218.2</ele>
        <time>2019-10-25T06:55:54.208Z</time>
      </trkpt>
      <trkpt lat="45.21291" lon="5.83216">
        <ele>219.8</ele>
        <time>2019-10-25T06:56:46.869Z</time>
      </trkpt>
      <trkpt lat="45.21255" lon="5.83178">
        <ele>220.7</ele>
        <time>2019-10-25T06:57:09.317Z</time>
      </trkpt>
      <trkpt lat="45.21229" lon="5.83151">
        <ele>221.7</ele>
        <time>2019-10-25T06:57:25.437Z</time>
      </trkpt>
      <trkpt lat="45.21207" lon="5.8312">
        <ele>222.3</ele>
        <time>2019-10-25T06:57:40.948Z</time>
      </trkpt>
      <trkpt lat="45.21157" lon="5.83049">
        <ele>222</ele>
        <time>2019-10-25T06:58:16.337Z</time>
      </trkpt>
      <trkpt lat="45.2113" lon="5.83028">
        <ele>221.7</ele>
        <time>2019-10-25T06:58:31.742Z</time>
      </trkpt>
      <trkpt lat="45.21112" lon="5.83022">
        <ele>221.5</ele>
        <time>2019-10-25T06:58:40.994Z</time>
      </trkpt>
      <trkpt lat="45.21079" lon="5.8299">
        <ele>221</ele>
        <time>2019-10-25T06:59:00.992Z</time>
      </trkpt>
      <trkpt lat="45.21065" lon="5.82973">
        <ele>220.7</ele>
        <time>2019-10-25T06:59:10.211Z</time>
      </trkpt>
      <trkpt lat="45.21044" lon="5.82956">
        <ele>220.4</ele>
        <time>2019-10-25T06:59:22.308Z</time>
      </trkpt>
      <trkpt lat="45.21034" lon="5.82947">
        <ele>220.2</ele>
        <time>2019-10-25T06:59:28.233Z</time>
      </trkpt>
      <trkpt lat="45.21034" lon="5.82947">
        <ele>220.2</ele>
        <time>2019-10-25T06:59:28.233Z</time>
      </trkpt>
      <trkpt lat="45.20991" lon="5.82907">
        <ele>220.3</ele>
        <time>2019-10-25T06:59:53.958Z</time>
      </trkpt>
      <trkpt lat="45.20936" lon="5.82862">
        <ele>223.6</ele>
        <time>2019-10-25T07:00:25.723Z</time>
      </trkpt>
      <trkpt lat="45.20881" lon="5.828">
        <ele>223.2</ele>
        <time>2019-10-25T07:01:00.867Z</time>
      </trkpt>
      <trkpt lat="45.20822" lon="5.82739">
        <ele>221.7</ele>
        <time>2019-10-25T07:01:37.391Z</time>
      </trkpt>
      <trkpt lat="45.20801" lon="5.82724">
        <ele>221.3</ele>
        <time>2019-10-25T07:01:49.154Z</time>
      </trkpt>
      <trkpt lat="45.20795" lon="5.82721">
        <ele>221.1</ele>
        <time>2019-10-25T07:01:52.337Z</time>
      </trkpt>
      <trkpt lat="45.20765" lon="5.82703">
        <ele>220.6</ele>
        <time>2019-10-25T07:02:08.634Z</time>
      </trkpt>
      <trkpt lat="45.20546" lon="5.82451">
        <ele>221.6</ele>
        <time>2019-10-25T07:04:29.705Z</time>
      </trkpt>
      <trkpt lat="45.20519" lon="5.82422">
        <ele>221.9</ele>
        <time>2019-10-25T07:04:46.648Z</time>
      </trkpt>
      <trkpt lat="45.20463" lon="5.8236">
        <ele>221.6</ele>
        <time>2019-10-25T07:05:22.186Z</time>
      </trkpt>
      <trkpt lat="45.20379" lon="5.82271">
        <ele>220.3</ele>
        <time>2019-10-25T07:06:14.638Z</time>
      </trkpt>
      <trkpt lat="45.20301" lon="5.82151">
        <ele>220.6</ele>
        <time>2019-10-25T07:07:12.199Z</time>
      </trkpt>
      <trkpt lat="45.20281" lon="5.82099">
        <ele>219.3</ele>
        <time>2019-10-25T07:07:33.086Z</time>
      </trkpt>
      <trkpt lat="45.2026" lon="5.82045">
        <ele>217.1</ele>
        <time>2019-10-25T07:07:54.832Z</time>
      </trkpt>
      <trkpt lat="45.2026" lon="5.82045">
        <ele>217.1</ele>
        <time>2019-10-25T07:07:54.832Z</time>
      </trkpt>
      <trkpt lat="45.20252" lon="5.82004">
        <ele>215.3</ele>
        <time>2019-10-25T07:08:09.831Z</time>
      </trkpt>
      <trkpt lat="45.20243" lon="5.81921">
        <ele>216.9</ele>
        <time>2019-10-25T07:08:39.439Z</time>
      </trkpt>
      <trkpt lat="45.20248" lon="5.8187">
        <ele>218.1</ele>
        <time>2019-10-25T07:08:57.593Z</time>
      </trkpt>
      <trkpt lat="45.20259" lon="5.81819">
        <ele>218.9</ele>
        <time>2019-10-25T07:09:16.398Z</time>
      </trkpt>
      <trkpt lat="45.20279" lon="5.81762">
        <ele>219.1</ele>
        <time>2019-10-25T07:09:38.848Z</time>
      </trkpt>
      <trkpt lat="45.20308" lon="5.81707">
        <ele>219.8</ele>
        <time>2019-10-25T07:10:03.067Z</time>
      </trkpt>
      <trkpt lat="45.20353" lon="5.81649">
        <ele>218.3</ele>
        <time>2019-10-25T07:10:33.483Z</time>
      </trkpt>
      <trkpt lat="45.20395" lon="5.81567">
        <ele>215.5</ele>
        <time>2019-10-25T07:11:09.224Z</time>
      </trkpt>
      <trkpt lat="45.20489" lon="5.81363">
        <ele>218.1</ele>
        <time>2019-10-25T07:12:35.160Z</time>
      </trkpt>
      <trkpt lat="45.20569" lon="5.81177">
        <ele>218.7</ele>
        <time>2019-10-25T07:13:51.987Z</time>
      </trkpt>
      <trkpt lat="45.20574" lon="5.81149">
        <ele>218.6</ele>
        <time>2019-10-25T07:14:02.170Z</time>
      </trkpt>
      <trkpt lat="45.20579" lon="5.81116">
        <ele>218.4</ele>
        <time>2019-10-25T07:14:14.070Z</time>
      </trkpt>
      <trkpt lat="45.20581" lon="5.80846">
        <ele>215.4</ele>
        <time>2019-10-25T07:15:49.263Z</time>
      </trkpt>
      <trkpt lat="45.20578" lon="5.80768">
        <ele>217.3</ele>
        <time>2019-10-25T07:16:16.803Z</time>
      </trkpt>
      <trkpt lat="45.20578" lon="5.80768">
        <ele>217.3</ele>
        <time>2019-10-25T07:16:16.803Z</time>
      </trkpt>
      <trkpt lat="45.20576" lon="5.80681">
        <ele>220.3</ele>
        <time>2019-10-25T07:16:47.491Z</time>
      </trkpt>
      <trkpt lat="45.20581" lon="5.8054">
        <ele>228.5</ele>
        <time>2019-10-25T07:17:37.263Z</time>
      </trkpt>
      <trkpt lat="45.2058" lon="5.80509">
        <ele>230.2</ele>
        <time>2019-10-25T07:17:48.203Z</time>
      </trkpt>
      <trkpt lat="45.20571" lon="5.80477">
        <ele>230.4</ele>
        <time>2019-10-25T07:18:00.350Z</time>
      </trkpt>
      <trkpt lat="45.20573" lon="5.8043">
        <ele>231.2</ele>
        <time>2019-10-25T07:18:16.950Z</time>
      </trkpt>
      <trkpt lat="45.20581" lon="5.80403">
        <ele>230.7</ele>
        <time>2019-10-25T07:18:27.276Z</time>
      </trkpt>
      <trkpt lat="45.20579" lon="5.80337">
        <ele>225</ele>
        <time>2019-10-25T07:18:50.566Z</time>
      </trkpt>
      <trkpt lat="45.20549" lon="5.8014">
        <ele>222.5</ele>
        <time>2019-10-25T07:20:01.622Z</time>
      </trkpt>
      <trkpt lat="45.20517" lon="5.80006">
        <ele>217.4</ele>
        <time>2019-10-25T07:20:51.503Z</time>
      </trkpt>
      <trkpt lat="45.20499" lon="5.79946">
        <ele>216</ele>
        <time>2019-10-25T07:21:14.494Z</time>
      </trkpt>
      <trkpt lat="45.20493" lon="5.79932">
        <ele>216</ele>
        <time>2019-10-25T07:21:20.271Z</time>
      </trkpt>
      <trkpt lat="45.2049" lon="5.79923">
        <ele>216</ele>
        <time>2019-10-25T07:21:23.781Z</time>
      </trkpt>
      <trkpt lat="45.20485" lon="5.79902">
        <ele>216.4</ele>
        <time>2019-10-25T07:21:31.596Z</time>
      </trkpt>
      <trkpt lat="45.20469" lon="5.79833">
        <ele>219.1</ele>
        <time>2019-10-25T07:21:57.206Z</time>
      </trkpt>
      <trkpt lat="45.2045" lon="5.79781">
        <ele>223.4</ele>
        <time>2019-10-25T07:22:17.857Z</time>
      </trkpt>
      <trkpt lat="45.20428" lon="5.79752">
        <ele>225.7</ele>
        <time>2019-10-25T07:22:32.881Z</time>
      </trkpt>
      <trkpt lat="45.20413" lon="5.79739">
        <ele>225</ele>
        <time>2019-10-25T07:22:41.675Z</time>
      </trkpt>
      <trkpt lat="45.20394" lon="5.7973">
        <ele>223.5</ele>
        <time>2019-10-25T07:22:51.698Z</time>
      </trkpt>
      <trkpt lat="45.20374" lon="5.79728">
        <ele>222.4</ele>
        <time>2019-10-25T07:23:01.730Z</time>
      </trkpt>
      <trkpt lat="45.20356" lon="5.79732">
        <ele>221.7</ele>
        <time>2019-10-25T07:23:10.847Z</time>
      </trkpt>
      <trkpt lat="45.20336" lon="5.79743">
        <ele>221</ele>
        <time>2019-10-25T07:23:21.580Z</time>
      </trkpt>
      <trkpt lat="45.20318" lon="5.79762">
        <ele>220.1</ele>
        <time>2019-10-25T07:23:32.805Z</time>
      </trkpt>
      <trkpt lat="45.2021" lon="5.79911">
        <ele>214.7</ele>
        <time>2019-10-25T07:24:48.171Z</time>
      </trkpt>
      <trkpt lat="45.20192" lon="5.79939">
        <ele>214.5</ele>
        <time>2019-10-25T07:25:01.534Z</time>
      </trkpt>
      <trkpt lat="45.20171" lon="5.79967">
        <ele>214.4</ele>
        <time>2019-10-25T07:25:15.952Z</time>
      </trkpt>
      <trkpt lat="45.20153" lon="5.79986">
        <ele>214.4</ele>
        <time>2019-10-25T07:25:27.177Z</time>
      </trkpt>
      <trkpt lat="45.20137" lon="5.79996">
        <ele>214.5</ele>
        <time>2019-10-25T07:25:35.925Z</time>
      </trkpt>
      <trkpt lat="45.20131" lon="5.79999">
        <ele>214.5</ele>
        <time>2019-10-25T07:25:39.108Z</time>
      </trkpt>
      <trkpt lat="45.20131" lon="5.79999">
        <ele>214.5</ele>
        <time>2019-10-25T07:25:39.108Z</time>
      </trkpt>
      <trkpt lat="45.20052" lon="5.80034">
        <ele>214.8</ele>
        <time>2019-10-25T07:26:20.519Z</time>
      </trkpt>
      <trkpt lat="45.20029" lon="5.80036">
        <ele>214.9</ele>
        <time>2019-10-25T07:26:32.049Z</time>
      </trkpt>
      <trkpt lat="45.19968" lon="5.80031">
        <ele>215</ele>
        <time>2019-10-25T07:27:02.623Z</time>
      </trkpt>
      <trkpt lat="45.19953" lon="5.80027">
        <ele>215</ele>
        <time>2019-10-25T07:27:10.260Z</time>
      </trkpt>
      <trkpt lat="45.19941" lon="5.8002">
        <ele>215</ele>
        <time>2019-10-25T07:27:16.752Z</time>
      </trkpt>
      <trkpt lat="45.19925" lon="5.80007">
        <ele>215</ele>
        <time>2019-10-25T07:27:25.977Z</time>
      </trkpt>
      <trkpt lat="45.19897" lon="5.7997">
        <ele>215.4</ele>
        <time>2019-10-25T07:27:45.121Z</time>
      </trkpt>
      <trkpt lat="45.19871" lon="5.79925">
        <ele>216.4</ele>
        <time>2019-10-25T07:28:05.639Z</time>
      </trkpt>
      <trkpt lat="45.19781" lon="5.79802">
        <ele>216.1</ele>
        <time>2019-10-25T07:29:08.160Z</time>
      </trkpt>
      <trkpt lat="45.19759" lon="5.79762">
        <ele>216.8</ele>
        <time>2019-10-25T07:29:26.051Z</time>
      </trkpt>
      <trkpt lat="45.19714" lon="5.7965">
        <ele>215.9</ele>
        <time>2019-10-25T07:30:11.510Z</time>
      </trkpt>
      <trkpt lat="45.19695" lon="5.79578">
        <ele>215.3</ele>
        <time>2019-10-25T07:30:38.619Z</time>
      </trkpt>
      <trkpt lat="45.19669" lon="5.79513">
        <ele>215</ele>
        <time>2019-10-25T07:31:04.973Z</time>
      </trkpt>
      <trkpt lat="45.19647" lon="5.7947">
        <ele>214.9</ele>
        <time>2019-10-25T07:31:23.710Z</time>
      </trkpt>
      <trkpt lat="45.19625" lon="5.79429">
        <ele>214.9</ele>
        <time>2019-10-25T07:31:41.881Z</time>
      </trkpt>
      <trkpt lat="45.19599" lon="5.79393">
        <ele>214.6</ele>
        <time>2019-10-25T07:32:00.058Z</time>
      </trkpt>
      <trkpt lat="45.19549" lon="5.79318">
        <ele>215.8</ele>
        <time>2019-10-25T07:32:36.463Z</time>
      </trkpt>
      <trkpt lat="45.19537" lon="5.79308">
        <ele>216.2</ele>
        <time>2019-10-25T07:32:43.426Z</time>
      </trkpt>
      <trkpt lat="45.19525" lon="5.79303">
        <ele>216.4</ele>
        <time>2019-10-25T07:32:49.684Z</time>
      </trkpt>
      <trkpt lat="45.19508" lon="5.79304">
        <ele>216.6</ele>
        <time>2019-10-25T07:32:58.198Z</time>
      </trkpt>
      <trkpt lat="45.19497" lon="5.79308">
        <ele>216.7</ele>
        <time>2019-10-25T07:33:03.880Z</time>
      </trkpt>
      <trkpt lat="45.19481" lon="5.79321">
        <ele>217.3</ele>
        <time>2019-10-25T07:33:13.105Z</time>
      </trkpt>
      <trkpt lat="45.19468" lon="5.79339">
        <ele>218</ele>
        <time>2019-10-25T07:33:22.193Z</time>
      </trkpt>
      <trkpt lat="45.19454" lon="5.79369">
        <ele>219.4</ele>
        <time>2019-10-25T07:33:34.881Z</time>
      </trkpt>
      <trkpt lat="45.19444" lon="5.794">
        <ele>220.7</ele>
        <time>2019-10-25T07:33:46.903Z</time>
      </trkpt>
      <trkpt lat="45.1941" lon="5.79521">
        <ele>220</ele>
        <time>2019-10-25T07:34:32.837Z</time>
      </trkpt>
      <trkpt lat="45.19375" lon="5.79686">
        <ele>220.2</ele>
        <time>2019-10-25T07:35:33.598Z</time>
      </trkpt>
      <trkpt lat="45.19372" lon="5.797">
        <ele>219.8</ele>
        <time>2019-10-25T07:35:38.758Z</time>
      </trkpt>
      <trkpt lat="45.19361" lon="5.79741">
        <ele>218.7</ele>
        <time>2019-10-25T07:35:54.228Z</time>
      </trkpt>
      <trkpt lat="45.19354" lon="5.7979">
        <ele>219.1</ele>
        <time>2019-10-25T07:36:11.858Z</time>
      </trkpt>
      <trkpt lat="45.19335" lon="5.79833">
        <ele>220</ele>
        <time>2019-10-25T07:36:29.755Z</time>
      </trkpt>
      <trkpt lat="45.19328" lon="5.79858">
        <ele>219.6</ele>
        <time>2019-10-25T07:36:39.241Z</time>
      </trkpt>
      <trkpt lat="45.19324" lon="5.79895">
        <ele>219.1</ele>
        <time>2019-10-25T07:36:52.441Z</time>
      </trkpt>
      <trkpt lat="45.19321" lon="5.79948">
        <ele>219.2</ele>
        <time>2019-10-25T07:37:11.190Z</time>
      </trkpt>
      <trkpt lat="45.19313" lon="5.79998">
        <ele>219.7</ele>
        <time>2019-10-25T07:37:29.270Z</time>
      </trkpt>
      <trkpt lat="45.19306" lon="5.80028">
        <ele>220</ele>
        <time>2019-10-25T07:37:40.414Z</time>
      </trkpt>
      <trkpt lat="45.19294" lon="5.80046">
        <ele>220.2</ele>
        <time>2019-10-25T07:37:49.151Z</time>
      </trkpt>
      <trkpt lat="45.19276" lon="5.80072">
        <ele>220.1</ele>
        <time>2019-10-25T07:38:02.003Z</time>
      </trkpt>
      <trkpt lat="45.19263" lon="5.80144">
        <ele>220.4</ele>
        <time>2019-10-25T07:38:28.212Z</time>
      </trkpt>
      <trkpt lat="45.19258" lon="5.80187">
        <ele>220.6</ele>
        <time>2019-10-25T07:38:43.580Z</time>
      </trkpt>
      <trkpt lat="45.19251" lon="5.80224">
        <ele>220.9</ele>
        <time>2019-10-25T07:38:57.089Z</time>
      </trkpt>
      <trkpt lat="45.19227" lon="5.80299">
        <ele>219.8</ele>
        <time>2019-10-25T07:39:26.135Z</time>
      </trkpt>
      <trkpt lat="45.19221" lon="5.8034">
        <ele>219.7</ele>
        <time>2019-10-25T07:39:40.901Z</time>
      </trkpt>
      <trkpt lat="45.19211" lon="5.80377">
        <ele>220</ele>
        <time>2019-10-25T07:39:54.875Z</time>
      </trkpt>
      <trkpt lat="45.19207" lon="5.80404">
        <ele>220.4</ele>
        <time>2019-10-25T07:40:04.604Z</time>
      </trkpt>
      <trkpt lat="45.19194" lon="5.80449">
        <ele>220.5</ele>
        <time>2019-10-25T07:40:21.754Z</time>
      </trkpt>
      <trkpt lat="45.19166" lon="5.80521">
        <ele>219.5</ele>
        <time>2019-10-25T07:40:50.753Z</time>
      </trkpt>
      <trkpt lat="45.19144" lon="5.8057">
        <ele>218.6</ele>
        <time>2019-10-25T07:41:11.241Z</time>
      </trkpt>
      <trkpt lat="45.19126" lon="5.80595">
        <ele>218.1</ele>
        <time>2019-10-25T07:41:23.844Z</time>
      </trkpt>
      <trkpt lat="45.19028" lon="5.80654">
        <ele>216.4</ele>
        <time>2019-10-25T07:42:17.112Z</time>
      </trkpt>
      <trkpt lat="45.19004" lon="5.80664">
        <ele>216.9</ele>
        <time>2019-10-25T07:42:29.628Z</time>
      </trkpt>
      <trkpt lat="45.19004" lon="5.8067">
        <ele>216.9</ele>
        <time>2019-10-25T07:42:31.744Z</time>
      </trkpt>
      <trkpt lat="45.19004" lon="5.80672">
        <ele>216.8</ele>
        <time>2019-10-25T07:42:32.449Z</time>
      </trkpt>
      <trkpt lat="45.19004" lon="5.80672">
        <ele>216.8</ele>
        <time>2019-10-25T07:42:32.449Z</time>
      </trkpt>
      <trkpt lat="45.19005" lon="5.80685">
        <ele>216.7</ele>
        <time>2019-10-25T07:42:37.061Z</time>
      </trkpt>
      <trkpt lat="45.19013" lon="5.80705">
        <ele>216.3</ele>
        <time>2019-10-25T07:42:45.171Z</time>
      </trkpt>
      <trkpt lat="45.19028" lon="5.80722">
        <ele>215.9</ele>
        <time>2019-10-25T07:42:54.777Z</time>
      </trkpt>
      <trkpt lat="45.19048" lon="5.80734">
        <ele>215.5</ele>
        <time>2019-10-25T07:43:05.642Z</time>
      </trkpt>
      <trkpt lat="45.19385" lon="5.80971">
        <ele>214.6</ele>
        <time>2019-10-25T07:46:13.843Z</time>
      </trkpt>
      <trkpt lat="45.19408" lon="5.80991">
        <ele>214.9</ele>
        <time>2019-10-25T07:46:27.341Z</time>
      </trkpt>
      <trkpt lat="45.19425" lon="5.81009">
        <ele>215.1</ele>
        <time>2019-10-25T07:46:37.954Z</time>
      </trkpt>
      <trkpt lat="45.19444" lon="5.81038">
        <ele>215.1</ele>
        <time>2019-10-25T07:46:51.917Z</time>
      </trkpt>
      <trkpt lat="45.19463" lon="5.81075">
        <ele>214.7</ele>
        <time>2019-10-25T07:47:08.060Z</time>
      </trkpt>
      <trkpt lat="45.19598" lon="5.81357">
        <ele>216</ele>
        <time>2019-10-25T07:49:08.271Z</time>
      </trkpt>
      <trkpt lat="45.19653" lon="5.8148">
        <ele>215.7</ele>
        <time>2019-10-25T07:49:59.636Z</time>
      </trkpt>
      <trkpt lat="45.19731" lon="5.81645">
        <ele>218.8</ele>
        <time>2019-10-25T07:51:09.694Z</time>
      </trkpt>
      <trkpt lat="45.19736" lon="5.81652">
        <ele>218.9</ele>
        <time>2019-10-25T07:51:13.208Z</time>
      </trkpt>
      <trkpt lat="45.19736" lon="5.81652">
        <ele>218.9</ele>
        <time>2019-10-25T07:51:13.269Z</time>
      </trkpt>
      <trkpt lat="45.19767" lon="5.81701">
        <ele>217.6</ele>
        <time>2019-10-25T07:51:36.536Z</time>
      </trkpt>
      <trkpt lat="45.19865" lon="5.81809">
        <ele>216.1</ele>
        <time>2019-10-25T07:52:38.601Z</time>
      </trkpt>
      <trkpt lat="45.19965" lon="5.81885">
        <ele>217</ele>
        <time>2019-10-25T07:53:35.408Z</time>
      </trkpt>
      <trkpt lat="45.20127" lon="5.81963">
        <ele>215.7</ele>
        <time>2019-10-25T07:55:00.621Z</time>
      </trkpt>
      <trkpt lat="45.20147" lon="5.81979">
        <ele>215.4</ele>
        <time>2019-10-25T07:55:12.388Z</time>
      </trkpt>
      <trkpt lat="45.2016" lon="5.81984">
        <ele>215.4</ele>
        <time>2019-10-25T07:55:18.877Z</time>
      </trkpt>
      <trkpt lat="45.20223" lon="5.81984">
        <ele>215.4</ele>
        <time>2019-10-25T07:55:50.551Z</time>
      </trkpt>
      <trkpt lat="45.20223" lon="5.8199">
        <ele>215.2</ele>
        <time>2019-10-25T07:55:52.742Z</time>
      </trkpt>
      <trkpt lat="45.20223" lon="5.8199">
        <ele>215.2</ele>
        <time>2019-10-25T07:55:52.742Z</time>
      </trkpt>
      <trkpt lat="45.20224" lon="5.82009">
        <ele>215.3</ele>
        <time>2019-10-25T07:55:59.632Z</time>
      </trkpt>
      <trkpt lat="45.20224" lon="5.82016">
        <ele>215.5</ele>
        <time>2019-10-25T07:56:01.932Z</time>
      </trkpt>
      <trkpt lat="45.20231" lon="5.82062">
        <ele>216.9</ele>
        <time>2019-10-25T07:56:18.513Z</time>
      </trkpt>
      <trkpt lat="45.20231" lon="5.82063">
        <ele>216.9</ele>
        <time>2019-10-25T07:56:18.929Z</time>
      </trkpt>
      <trkpt lat="45.20231" lon="5.8206">
        <ele>216.8</ele>
        <time>2019-10-25T07:56:19.959Z</time>
      </trkpt>
      <trkpt lat="45.2023" lon="5.8206">
        <ele>216.8</ele>
        <time>2019-10-25T07:56:20.498Z</time>
      </trkpt>
      <trkpt lat="45.20231" lon="5.82062">
        <ele>216.9</ele>
        <time>2019-10-25T07:56:21.363Z</time>
      </trkpt>
      <trkpt lat="45.20212" lon="5.8207">
        <ele>216.8</ele>
        <time>2019-10-25T07:56:31.280Z</time>
      </trkpt>
      <trkpt lat="45.202" lon="5.82051">
        <ele>216.1</ele>
        <time>2019-10-25T07:56:40.276Z</time>
      </trkpt>
      <trkpt lat="45.20178" lon="5.82027">
        <ele>215.4</ele>
        <time>2019-10-25T07:56:54.161Z</time>
      </trkpt>
      <trkpt lat="45.20178" lon="5.82027">
        <ele>215.4</ele>
        <time>2019-10-25T07:56:54.161Z</time>
      </trkpt>
      <trkpt lat="45.2017" lon="5.82018">
        <ele>215.2</ele>
        <time>2019-10-25T07:56:59.269Z</time>
      </trkpt>
      <trkpt lat="45.20117" lon="5.81975">
        <ele>215.4</ele>
        <time>2019-10-25T07:57:29.817Z</time>
      </trkpt>
      <trkpt lat="45.20015" lon="5.81926">
        <ele>216.8</ele>
        <time>2019-10-25T07:58:23.700Z</time>
      </trkpt>
      <trkpt lat="45.19951" lon="5.81889">
        <ele>217</ele>
        <time>2019-10-25T07:58:58.279Z</time>
      </trkpt>
      <trkpt lat="45.19893" lon="5.81849">
        <ele>216.9</ele>
        <time>2019-10-25T07:59:30.546Z</time>
      </trkpt>
      <trkpt lat="45.19824" lon="5.81785">
        <ele>215.5</ele>
        <time>2019-10-25T08:00:11.792Z</time>
      </trkpt>
      <trkpt lat="45.19809" lon="5.8177">
        <ele>215.7</ele>
        <time>2019-10-25T08:00:20.974Z</time>
      </trkpt>
      <trkpt lat="45.19788" lon="5.81749">
        <ele>216.1</ele>
        <time>2019-10-25T08:00:33.829Z</time>
      </trkpt>
      <trkpt lat="45.19753" lon="5.81705">
        <ele>218</ele>
        <time>2019-10-25T08:00:57.226Z</time>
      </trkpt>
      <trkpt lat="45.19719" lon="5.81656">
        <ele>219.4</ele>
        <time>2019-10-25T08:01:21.474Z</time>
      </trkpt>
      <trkpt lat="45.19686" lon="5.81605">
        <ele>217.9</ele>
        <time>2019-10-25T08:01:45.888Z</time>
      </trkpt>
      <trkpt lat="45.1965" lon="5.8154">
        <ele>216.2</ele>
        <time>2019-10-25T08:02:15.039Z</time>
      </trkpt>
      <trkpt lat="45.19575" lon="5.81396">
        <ele>215.2</ele>
        <time>2019-10-25T08:03:18.178Z</time>
      </trkpt>
      <trkpt lat="45.19587" lon="5.81376">
        <ele>215.6</ele>
        <time>2019-10-25T08:03:27.440Z</time>
      </trkpt>
      <trkpt lat="45.19588" lon="5.81374">
        <ele>215.6</ele>
        <time>2019-10-25T08:03:28.305Z</time>
      </trkpt>
      <trkpt lat="45.19548" lon="5.81303">
        <ele>217.5</ele>
        <time>2019-10-25T08:04:00.148Z</time>
      </trkpt>
      <trkpt lat="45.19445" lon="5.81097">
        <ele>215.1</ele>
        <time>2019-10-25T08:05:29.570Z</time>
      </trkpt>
      <trkpt lat="45.19417" lon="5.81037">
        <ele>216.1</ele>
        <time>2019-10-25T08:05:54.859Z</time>
      </trkpt>
      <trkpt lat="45.19399" lon="5.81018">
        <ele>214.6</ele>
        <time>2019-10-25T08:06:06.083Z</time>
      </trkpt>
      <trkpt lat="45.19371" lon="5.80993">
        <ele>214.5</ele>
        <time>2019-10-25T08:06:22.636Z</time>
      </trkpt>
      <trkpt lat="45.19319" lon="5.80958">
        <ele>214</ele>
        <time>2019-10-25T08:06:51.434Z</time>
      </trkpt>
      <trkpt lat="45.19213" lon="5.8088">
        <ele>213.9</ele>
        <time>2019-10-25T08:07:51.182Z</time>
      </trkpt>
      <trkpt lat="45.1905" lon="5.80773">
        <ele>215.5</ele>
        <time>2019-10-25T08:09:21.049Z</time>
      </trkpt>
      <trkpt lat="45.19008" lon="5.80748">
        <ele>215.9</ele>
        <time>2019-10-25T08:09:43.839Z</time>
      </trkpt>
      <trkpt lat="45.18999" lon="5.80747">
        <ele>216</ele>
        <time>2019-10-25T08:09:48.356Z</time>
      </trkpt>
      <trkpt lat="45.18985" lon="5.80757">
        <ele>215.9</ele>
        <time>2019-10-25T08:09:56.199Z</time>
      </trkpt>
      <trkpt lat="45.18978" lon="5.80758">
        <ele>216</ele>
        <time>2019-10-25T08:09:59.719Z</time>
      </trkpt>
      <trkpt lat="45.18978" lon="5.80758">
        <ele>216</ele>
        <time>2019-10-25T08:09:59.825Z</time>
      </trkpt>
      <trkpt lat="45.18976" lon="5.80758">
        <ele>216</ele>
        <time>2019-10-25T08:10:00.836Z</time>
      </trkpt>
      <trkpt lat="45.18971" lon="5.80756">
        <ele>216</ele>
        <time>2019-10-25T08:10:03.555Z</time>
      </trkpt>
      <trkpt lat="45.18961" lon="5.80736">
        <ele>216.2</ele>
        <time>2019-10-25T08:10:12.034Z</time>
      </trkpt>
      <trkpt lat="45.18953" lon="5.80704">
        <ele>216.9</ele>
        <time>2019-10-25T08:10:24.133Z</time>
      </trkpt>
      <trkpt lat="45.18952" lon="5.80673">
        <ele>217.5</ele>
        <time>2019-10-25T08:10:35.253Z</time>
      </trkpt>
      <trkpt lat="45.18877" lon="5.80674">
        <ele>218.3</ele>
        <time>2019-10-25T08:11:12.685Z</time>
      </trkpt>
      <trkpt lat="45.18857" lon="5.80673">
        <ele>218.6</ele>
        <time>2019-10-25T08:11:22.803Z</time>
      </trkpt>
      <trkpt lat="45.18846" lon="5.80672">
        <ele>218.7</ele>
        <time>2019-10-25T08:11:28.329Z</time>
      </trkpt>
      <trkpt lat="45.18838" lon="5.80669">
        <ele>218.9</ele>
        <time>2019-10-25T08:11:31.973Z</time>
      </trkpt>
      <trkpt lat="45.18796" lon="5.80651">
        <ele>218.9</ele>
        <time>2019-10-25T08:11:54.313Z</time>
      </trkpt>
      <trkpt lat="45.18743" lon="5.80615">
        <ele>217.4</ele>
        <time>2019-10-25T08:12:23.655Z</time>
      </trkpt>
      <trkpt lat="45.18731" lon="5.80603">
        <ele>217.2</ele>
        <time>2019-10-25T08:12:30.798Z</time>
      </trkpt>
      <trkpt lat="45.18719" lon="5.80583">
        <ele>217</ele>
        <time>2019-10-25T08:12:40.325Z</time>
      </trkpt>
      <trkpt lat="45.18681" lon="5.80499">
        <ele>217.2</ele>
        <time>2019-10-25T08:13:15.413Z</time>
      </trkpt>
      <trkpt lat="45.18675" lon="5.80478">
        <ele>216.6</ele>
        <time>2019-10-25T08:13:23.302Z</time>
      </trkpt>
      <trkpt lat="45.18673" lon="5.80464">
        <ele>216.3</ele>
        <time>2019-10-25T08:13:28.567Z</time>
      </trkpt>
      <trkpt lat="45.1867" lon="5.80422">
        <ele>215.3</ele>
        <time>2019-10-25T08:13:43.353Z</time>
      </trkpt>
      <trkpt lat="45.18657" lon="5.8035">
        <ele>214.6</ele>
        <time>2019-10-25T08:14:09.816Z</time>
      </trkpt>
      <trkpt lat="45.18655" lon="5.80325">
        <ele>214.4</ele>
        <time>2019-10-25T08:14:18.398Z</time>
      </trkpt>
      <trkpt lat="45.18661" lon="5.8025">
        <ele>213.4</ele>
        <time>2019-10-25T08:14:45.112Z</time>
      </trkpt>
      <trkpt lat="45.18666" lon="5.80226">
        <ele>213.6</ele>
        <time>2019-10-25T08:14:54.010Z</time>
      </trkpt>
      <trkpt lat="45.18681" lon="5.80191">
        <ele>214.6</ele>
        <time>2019-10-25T08:15:08.719Z</time>
      </trkpt>
      <trkpt lat="45.18695" lon="5.80145">
        <ele>215.2</ele>
        <time>2019-10-25T08:15:26.104Z</time>
      </trkpt>
      <trkpt lat="45.18704" lon="5.80076">
        <ele>215.6</ele>
        <time>2019-10-25T08:15:50.816Z</time>
      </trkpt>
      <trkpt lat="45.18712" lon="5.80051">
        <ele>215.7</ele>
        <time>2019-10-25T08:16:00.744Z</time>
      </trkpt>
      <trkpt lat="45.18731" lon="5.80008">
        <ele>215.9</ele>
        <time>2019-10-25T08:16:18.586Z</time>
      </trkpt>
      <trkpt lat="45.18755" lon="5.79964">
        <ele>215.7</ele>
        <time>2019-10-25T08:16:38.081Z</time>
      </trkpt>
      <trkpt lat="45.18768" lon="5.79934">
        <ele>216</ele>
        <time>2019-10-25T08:16:50.404Z</time>
      </trkpt>
      <trkpt lat="45.18778" lon="5.79903">
        <ele>216.3</ele>
        <time>2019-10-25T08:17:02.398Z</time>
      </trkpt>
      <trkpt lat="45.18788" lon="5.79879">
        <ele>216.7</ele>
        <time>2019-10-25T08:17:12.357Z</time>
      </trkpt>
      <trkpt lat="45.18788" lon="5.79879">
        <ele>216.7</ele>
        <time>2019-10-25T08:17:12.418Z</time>
      </trkpt>
      <trkpt lat="45.18836" lon="5.79771">
        <ele>214.1</ele>
        <time>2019-10-25T08:17:57.446Z</time>
      </trkpt>
      <trkpt lat="45.18855" lon="5.79722">
        <ele>213.3</ele>
        <time>2019-10-25T08:18:17.169Z</time>
      </trkpt>
      <trkpt lat="45.18868" lon="5.79681">
        <ele>213.1</ele>
        <time>2019-10-25T08:18:33.024Z</time>
      </trkpt>
      <trkpt lat="45.18881" lon="5.79614">
        <ele>214</ele>
        <time>2019-10-25T08:18:57.531Z</time>
      </trkpt>
      <trkpt lat="45.18898" lon="5.7945">
        <ele>213.6</ele>
        <time>2019-10-25T08:19:55.988Z</time>
      </trkpt>
      <trkpt lat="45.18901" lon="5.79415">
        <ele>213</ele>
        <time>2019-10-25T08:20:08.422Z</time>
      </trkpt>
      <trkpt lat="45.18901" lon="5.79379">
        <ele>213</ele>
        <time>2019-10-25T08:20:21.117Z</time>
      </trkpt>
      <trkpt lat="45.18895" lon="5.79252">
        <ele>212.7</ele>
        <time>2019-10-25T08:21:06.004Z</time>
      </trkpt>
      <trkpt lat="45.18895" lon="5.79171">
        <ele>213.7</ele>
        <time>2019-10-25T08:21:34.569Z</time>
      </trkpt>
      <trkpt lat="45.18894" lon="5.79142">
        <ele>214</ele>
        <time>2019-10-25T08:21:44.808Z</time>
      </trkpt>
      <trkpt lat="45.18893" lon="5.79131">
        <ele>214.1</ele>
        <time>2019-10-25T08:21:48.719Z</time>
      </trkpt>
      <trkpt lat="45.18887" lon="5.79001">
        <ele>215</ele>
        <time>2019-10-25T08:22:34.662Z</time>
      </trkpt>
      <trkpt lat="45.1889" lon="5.78957">
        <ele>215.7</ele>
        <time>2019-10-25T08:22:50.251Z</time>
      </trkpt>
      <trkpt lat="45.18899" lon="5.78909">
        <ele>216</ele>
        <time>2019-10-25T08:23:07.767Z</time>
      </trkpt>
      <trkpt lat="45.189" lon="5.78904">
        <ele>215.8</ele>
        <time>2019-10-25T08:23:09.600Z</time>
      </trkpt>
      <trkpt lat="45.18909" lon="5.78855">
        <ele>214</ele>
        <time>2019-10-25T08:23:27.457Z</time>
      </trkpt>
      <trkpt lat="45.18918" lon="5.78812">
        <ele>213.2</ele>
        <time>2019-10-25T08:23:43.276Z</time>
      </trkpt>
      <trkpt lat="45.18929" lon="5.78773">
        <ele>213.4</ele>
        <time>2019-10-25T08:23:58.090Z</time>
      </trkpt>
      <trkpt lat="45.18935" lon="5.78737">
        <ele>213.6</ele>
        <time>2019-10-25T08:24:11.136Z</time>
      </trkpt>
      <trkpt lat="45.18947" lon="5.78682">
        <ele>213.6</ele>
        <time>2019-10-25T08:24:31.440Z</time>
      </trkpt>
      <trkpt lat="45.18957" lon="5.78626">
        <ele>214.7</ele>
        <time>2019-10-25T08:24:51.812Z</time>
      </trkpt>
      <trkpt lat="45.18966" lon="5.78588">
        <ele>215.9</ele>
        <time>2019-10-25T08:25:05.949Z</time>
      </trkpt>
      <trkpt lat="45.18982" lon="5.78506">
        <ele>215.1</ele>
        <time>2019-10-25T08:25:35.954Z</time>
      </trkpt>
      <trkpt lat="45.19001" lon="5.78425">
        <ele>215.9</ele>
        <time>2019-10-25T08:26:06.059Z</time>
      </trkpt>
      <trkpt lat="45.19014" lon="5.78377">
        <ele>216.8</ele>
        <time>2019-10-25T08:26:24.193Z</time>
      </trkpt>
      <trkpt lat="45.19052" lon="5.78279">
        <ele>216.7</ele>
        <time>2019-10-25T08:27:03.638Z</time>
      </trkpt>
      <trkpt lat="45.19071" lon="5.7824">
        <ele>216.9</ele>
        <time>2019-10-25T08:27:20.357Z</time>
      </trkpt>
      <trkpt lat="45.19075" lon="5.78231">
        <ele>216.8</ele>
        <time>2019-10-25T08:27:24.109Z</time>
      </trkpt>
      <trkpt lat="45.19097" lon="5.78185">
        <ele>216.6</ele>
        <time>2019-10-25T08:27:43.713Z</time>
      </trkpt>
      <trkpt lat="45.19099" lon="5.78181">
        <ele>216.7</ele>
        <time>2019-10-25T08:27:45.443Z</time>
      </trkpt>
      <trkpt lat="45.19116" lon="5.78146">
        <ele>216.9</ele>
        <time>2019-10-25T08:28:00.433Z</time>
      </trkpt>
      <trkpt lat="45.19118" lon="5.78141">
        <ele>216.9</ele>
        <time>2019-10-25T08:28:02.460Z</time>
      </trkpt>
      <trkpt lat="45.19118" lon="5.78141">
        <ele>216.9</ele>
        <time>2019-10-25T08:28:02.460Z</time>
      </trkpt>
      <trkpt lat="45.19128" lon="5.7812">
        <ele>217</ele>
        <time>2019-10-25T08:28:11.397Z</time>
      </trkpt>
      <trkpt lat="45.19136" lon="5.78102">
        <ele>217.1</ele>
        <time>2019-10-25T08:28:18.901Z</time>
      </trkpt>
      <trkpt lat="45.19156" lon="5.78069">
        <ele>217.7</ele>
        <time>2019-10-25T08:28:34.249Z</time>
      </trkpt>
      <trkpt lat="45.19176" lon="5.78042">
        <ele>218.1</ele>
        <time>2019-10-25T08:28:48.062Z</time>
      </trkpt>
      <trkpt lat="45.19186" lon="5.78029">
        <ele>218.2</ele>
        <time>2019-10-25T08:28:54.848Z</time>
      </trkpt>
      <trkpt lat="45.19195" lon="5.78018">
        <ele>218.1</ele>
        <time>2019-10-25T08:29:00.792Z</time>
      </trkpt>
      <trkpt lat="45.19212" lon="5.77999">
        <ele>218</ele>
        <time>2019-10-25T08:29:11.620Z</time>
      </trkpt>
      <trkpt lat="45.19238" lon="5.77983">
        <ele>217.4</ele>
        <time>2019-10-25T08:29:25.801Z</time>
      </trkpt>
      <trkpt lat="45.19281" lon="5.77975">
        <ele>218.3</ele>
        <time>2019-10-25T08:29:47.501Z</time>
      </trkpt>
      <trkpt lat="45.19443" lon="5.77962">
        <ele>215.7</ele>
        <time>2019-10-25T08:31:08.692Z</time>
      </trkpt>
      <trkpt lat="45.19479" lon="5.77949">
        <ele>217</ele>
        <time>2019-10-25T08:31:27.280Z</time>
      </trkpt>
      <trkpt lat="45.19515" lon="5.77936">
        <ele>217.6</ele>
        <time>2019-10-25T08:31:45.868Z</time>
      </trkpt>
      <trkpt lat="45.19634" lon="5.77891">
        <ele>211.2</ele>
        <time>2019-10-25T08:32:47.491Z</time>
      </trkpt>
      <trkpt lat="45.19742" lon="5.77859">
        <ele>210.7</ele>
        <time>2019-10-25T08:33:42.697Z</time>
      </trkpt>
      <trkpt lat="45.19841" lon="5.77824">
        <ele>213.3</ele>
        <time>2019-10-25T08:34:33.748Z</time>
      </trkpt>
      <trkpt lat="45.19854" lon="5.77816">
        <ele>213.6</ele>
        <time>2019-10-25T08:34:40.838Z</time>
      </trkpt>
      <trkpt lat="45.19886" lon="5.77796">
        <ele>214.2</ele>
        <time>2019-10-25T08:34:58.334Z</time>
      </trkpt>
      <trkpt lat="45.19901" lon="5.77784">
        <ele>214.5</ele>
        <time>2019-10-25T08:35:06.950Z</time>
      </trkpt>
      <trkpt lat="45.19918" lon="5.77771">
        <ele>214.8</ele>
        <time>2019-10-25T08:35:16.613Z</time>
      </trkpt>
      <trkpt lat="45.19961" lon="5.77733">
        <ele>215.3</ele>
        <time>2019-10-25T08:35:41.960Z</time>
      </trkpt>
      <trkpt lat="45.19985" lon="5.77703">
        <ele>214.5</ele>
        <time>2019-10-25T08:35:57.963Z</time>
      </trkpt>
      <trkpt lat="45.19986" lon="5.77701">
        <ele>214.4</ele>
        <time>2019-10-25T08:35:58.828Z</time>
      </trkpt>
      <trkpt lat="45.20007" lon="5.77665">
        <ele>213.2</ele>
        <time>2019-10-25T08:36:15.306Z</time>
      </trkpt>
      <trkpt lat="45.20026" lon="5.77625">
        <ele>214.1</ele>
        <time>2019-10-25T08:36:32.314Z</time>
      </trkpt>
      <trkpt lat="45.20039" lon="5.77579">
        <ele>215.1</ele>
        <time>2019-10-25T08:36:49.789Z</time>
      </trkpt>
      <trkpt lat="45.20046" lon="5.77542">
        <ele>216.6</ele>
        <time>2019-10-25T08:37:03.297Z</time>
      </trkpt>
      <trkpt lat="45.20051" lon="5.775">
        <ele>218.4</ele>
        <time>2019-10-25T08:37:18.315Z</time>
      </trkpt>
      <trkpt lat="45.20049" lon="5.77459">
        <ele>217.6</ele>
        <time>2019-10-25T08:37:32.805Z</time>
      </trkpt>
      <trkpt lat="45.20048" lon="5.77436">
        <ele>217.1</ele>
        <time>2019-10-25T08:37:40.930Z</time>
      </trkpt>
      <trkpt lat="45.20048" lon="5.77436">
        <ele>217.1</ele>
        <time>2019-10-25T08:37:41.030Z</time>
      </trkpt>
      <trkpt lat="45.20045" lon="5.7739">
        <ele>216.7</ele>
        <time>2019-10-25T08:37:57.227Z</time>
      </trkpt>
      <trkpt lat="45.20035" lon="5.77347">
        <ele>216.9</ele>
        <time>2019-10-25T08:38:13.116Z</time>
      </trkpt>
      <trkpt lat="45.20023" lon="5.77303">
        <ele>217.6</ele>
        <time>2019-10-25T08:38:29.802Z</time>
      </trkpt>
      <trkpt lat="45.20015" lon="5.77279">
        <ele>218.2</ele>
        <time>2019-10-25T08:38:39.185Z</time>
      </trkpt>
      <trkpt lat="45.2" lon="5.77236">
        <ele>218.8</ele>
        <time>2019-10-25T08:38:56.036Z</time>
      </trkpt>
      <trkpt lat="45.19974" lon="5.77178">
        <ele>218.4</ele>
        <time>2019-10-25T08:39:20.409Z</time>
      </trkpt>
      <trkpt lat="45.19962" lon="5.77162">
        <ele>218.4</ele>
        <time>2019-10-25T08:39:28.611Z</time>
      </trkpt>
      <trkpt lat="45.19942" lon="5.77139">
        <ele>218.5</ele>
        <time>2019-10-25T08:39:41.636Z</time>
      </trkpt>
      <trkpt lat="45.19904" lon="5.77105">
        <ele>218.1</ele>
        <time>2019-10-25T08:40:03.893Z</time>
      </trkpt>
      <trkpt lat="45.19857" lon="5.77073">
        <ele>217.2</ele>
        <time>2019-10-25T08:40:30.024Z</time>
      </trkpt>
      <trkpt lat="45.19843" lon="5.77063">
        <ele>217.1</ele>
        <time>2019-10-25T08:40:38.091Z</time>
      </trkpt>
      <trkpt lat="45.19825" lon="5.77041">
        <ele>217.1</ele>
        <time>2019-10-25T08:40:49.644Z</time>
      </trkpt>
      <trkpt lat="45.19806" lon="5.77013">
        <ele>217.3</ele>
        <time>2019-10-25T08:41:03.496Z</time>
      </trkpt>
      <trkpt lat="45.19785" lon="5.76987">
        <ele>217.2</ele>
        <time>2019-10-25T08:41:17.273Z</time>
      </trkpt>
      <trkpt lat="45.19775" lon="5.76972">
        <ele>216.8</ele>
        <time>2019-10-25T08:41:24.538Z</time>
      </trkpt>
      <trkpt lat="45.19767" lon="5.76956">
        <ele>216.3</ele>
        <time>2019-10-25T08:41:31.744Z</time>
      </trkpt>
      <trkpt lat="45.19743" lon="5.76901">
        <ele>215</ele>
        <time>2019-10-25T08:41:54.511Z</time>
      </trkpt>
      <trkpt lat="45.19727" lon="5.76869">
        <ele>215.5</ele>
        <time>2019-10-25T08:42:08.115Z</time>
      </trkpt>
      <trkpt lat="45.19713" lon="5.76839">
        <ele>216.2</ele>
        <time>2019-10-25T08:42:20.971Z</time>
      </trkpt>
      <trkpt lat="45.19674" lon="5.76748">
        <ele>215.1</ele>
        <time>2019-10-25T08:42:58.686Z</time>
      </trkpt>
      <trkpt lat="45.1967" lon="5.76739">
        <ele>215.3</ele>
        <time>2019-10-25T08:43:02.435Z</time>
      </trkpt>
      <trkpt lat="45.19663" lon="5.76724">
        <ele>215.7</ele>
        <time>2019-10-25T08:43:08.435Z</time>
      </trkpt>
      <trkpt lat="45.19654" lon="5.76706">
        <ele>216.3</ele>
        <time>2019-10-25T08:43:16.393Z</time>
      </trkpt>
      <trkpt lat="45.19637" lon="5.76662">
        <ele>217.5</ele>
        <time>2019-10-25T08:43:34.077Z</time>
      </trkpt>
      <trkpt lat="45.19624" lon="5.76643">
        <ele>217.2</ele>
        <time>2019-10-25T08:43:43.460Z</time>
      </trkpt>
      <trkpt lat="45.19607" lon="5.76604">
        <ele>216.2</ele>
        <time>2019-10-25T08:43:59.855Z</time>
      </trkpt>
      <trkpt lat="45.19591" lon="5.7655">
        <ele>215.5</ele>
        <time>2019-10-25T08:44:20.420Z</time>
      </trkpt>
      <trkpt lat="45.1958" lon="5.76504">
        <ele>215.1</ele>
        <time>2019-10-25T08:44:37.599Z</time>
      </trkpt>
      <trkpt lat="45.1957" lon="5.76468">
        <ele>217.5</ele>
        <time>2019-10-25T08:44:51.037Z</time>
      </trkpt>
      <trkpt lat="45.19563" lon="5.76433">
        <ele>219.9</ele>
        <time>2019-10-25T08:45:03.874Z</time>
      </trkpt>
      <trkpt lat="45.19557" lon="5.76392">
        <ele>220.3</ele>
        <time>2019-10-25T08:45:18.602Z</time>
      </trkpt>
      <trkpt lat="45.19553" lon="5.76354">
        <ele>219.2</ele>
        <time>2019-10-25T08:45:32.170Z</time>
      </trkpt>
      <trkpt lat="45.19547" lon="5.76312">
        <ele>218.2</ele>
        <time>2019-10-25T08:45:47.415Z</time>
      </trkpt>
      <trkpt lat="45.19543" lon="5.7629">
        <ele>217.7</ele>
        <time>2019-10-25T08:45:55.242Z</time>
      </trkpt>
      <trkpt lat="45.19543" lon="5.76285">
        <ele>217.6</ele>
        <time>2019-10-25T08:45:57.122Z</time>
      </trkpt>
      <trkpt lat="45.19542" lon="5.76273">
        <ele>217.4</ele>
        <time>2019-10-25T08:46:01.237Z</time>
      </trkpt>
      <trkpt lat="45.19539" lon="5.76247">
        <ele>216.9</ele>
        <time>2019-10-25T08:46:10.588Z</time>
      </trkpt>
      <trkpt lat="45.1954" lon="5.76224">
        <ele>216.4</ele>
        <time>2019-10-25T08:46:18.842Z</time>
      </trkpt>
      <trkpt lat="45.19542" lon="5.76167">
        <ele>215</ele>
        <time>2019-10-25T08:46:38.939Z</time>
      </trkpt>
      <trkpt lat="45.19545" lon="5.76126">
        <ele>214.2</ele>
        <time>2019-10-25T08:46:53.555Z</time>
      </trkpt>
      <trkpt lat="45.19553" lon="5.76045">
        <ele>213.6</ele>
        <time>2019-10-25T08:47:22.138Z</time>
      </trkpt>
      <trkpt lat="45.19564" lon="5.75989">
        <ele>214.1</ele>
        <time>2019-10-25T08:47:42.555Z</time>
      </trkpt>
      <trkpt lat="45.19574" lon="5.75942">
        <ele>214.2</ele>
        <time>2019-10-25T08:47:59.896Z</time>
      </trkpt>
      <trkpt lat="45.19574" lon="5.75942">
        <ele>214.2</ele>
        <time>2019-10-25T08:48:00.080Z</time>
      </trkpt>
      <trkpt lat="45.1959" lon="5.75868">
        <ele>213.6</ele>
        <time>2019-10-25T08:48:27.374Z</time>
      </trkpt>
      <trkpt lat="45.19608" lon="5.7581">
        <ele>213.7</ele>
        <time>2019-10-25T08:48:49.721Z</time>
      </trkpt>
      <trkpt lat="45.19616" lon="5.75791">
        <ele>213.9</ele>
        <time>2019-10-25T08:48:57.525Z</time>
      </trkpt>
      <trkpt lat="45.19643" lon="5.75744">
        <ele>214</ele>
        <time>2019-10-25T08:49:18.907Z</time>
      </trkpt>
      <trkpt lat="45.19651" lon="5.7573">
        <ele>214.1</ele>
        <time>2019-10-25T08:49:25.263Z</time>
      </trkpt>
      <trkpt lat="45.19671" lon="5.75695">
        <ele>215</ele>
        <time>2019-10-25T08:49:41.059Z</time>
      </trkpt>
      <trkpt lat="45.19684" lon="5.75648">
        <ele>214.5</ele>
        <time>2019-10-25T08:49:58.797Z</time>
      </trkpt>
      <trkpt lat="45.19685" lon="5.75604">
        <ele>214.8</ele>
        <time>2019-10-25T08:50:14.515Z</time>
      </trkpt>
      <trkpt lat="45.19686" lon="5.75564">
        <ele>214.6</ele>
        <time>2019-10-25T08:50:28.513Z</time>
      </trkpt>
      <trkpt lat="45.1968" lon="5.75527">
        <ele>214.1</ele>
        <time>2019-10-25T08:50:41.830Z</time>
      </trkpt>
      <trkpt lat="45.19672" lon="5.75503">
        <ele>213.3</ele>
        <time>2019-10-25T08:50:51.221Z</time>
      </trkpt>
      <trkpt lat="45.19666" lon="5.7549">
        <ele>212.7</ele>
        <time>2019-10-25T08:50:56.641Z</time>
      </trkpt>
      <trkpt lat="45.19643" lon="5.75462">
        <ele>212.2</ele>
        <time>2019-10-25T08:51:12.093Z</time>
      </trkpt>
      <trkpt lat="45.19625" lon="5.75462">
        <ele>212.3</ele>
        <time>2019-10-25T08:51:21.172Z</time>
      </trkpt>
      <trkpt lat="45.19614" lon="5.75459">
        <ele>211.5</ele>
        <time>2019-10-25T08:51:26.515Z</time>
      </trkpt>
      <trkpt lat="45.19607" lon="5.75447">
        <ele>211.6</ele>
        <time>2019-10-25T08:51:32.008Z</time>
      </trkpt>
      <trkpt lat="45.19577" lon="5.75422">
        <ele>212</ele>
        <time>2019-10-25T08:51:49.416Z</time>
      </trkpt>
      <trkpt lat="45.19571" lon="5.75413">
        <ele>212.1</ele>
        <time>2019-10-25T08:51:53.785Z</time>
      </trkpt>
      <trkpt lat="45.19579" lon="5.75418">
        <ele>212</ele>
        <time>2019-10-25T08:51:58.159Z</time>
      </trkpt>
      <trkpt lat="45.19612" lon="5.75441">
        <ele>211.7</ele>
        <time>2019-10-25T08:52:16.556Z</time>
      </trkpt>
      <trkpt lat="45.19615" lon="5.75441">
        <ele>211.7</ele>
        <time>2019-10-25T08:52:18.057Z</time>
      </trkpt>
      <trkpt lat="45.19676" lon="5.75373">
        <ele>213</ele>
        <time>2019-10-25T08:52:56.871Z</time>
      </trkpt>
      <trkpt lat="45.1968" lon="5.75373">
        <ele>213</ele>
        <time>2019-10-25T08:52:58.873Z</time>
      </trkpt>
      <trkpt lat="45.19693" lon="5.75389">
        <ele>213.1</ele>
        <time>2019-10-25T08:53:07.336Z</time>
      </trkpt>
      <trkpt lat="45.19706" lon="5.75403">
        <ele>211.9</ele>
        <time>2019-10-25T08:53:15.645Z</time>
      </trkpt>
      <trkpt lat="45.19725" lon="5.7543">
        <ele>211.6</ele>
        <time>2019-10-25T08:53:29.099Z</time>
      </trkpt>
      <trkpt lat="45.19725" lon="5.7543">
        <ele>211.6</ele>
        <time>2019-10-25T08:53:29.305Z</time>
      </trkpt>
      <trkpt lat="45.19739" lon="5.75452">
        <ele>211.9</ele>
        <time>2019-10-25T08:53:39.773Z</time>
      </trkpt>
      <trkpt lat="45.19764" lon="5.75498">
        <ele>213.3</ele>
        <time>2019-10-25T08:54:00.165Z</time>
      </trkpt>
      <trkpt lat="45.19778" lon="5.75559">
        <ele>214.6</ele>
        <time>2019-10-25T08:54:22.935Z</time>
      </trkpt>
      <trkpt lat="45.19779" lon="5.75582">
        <ele>215</ele>
        <time>2019-10-25T08:54:30.881Z</time>
      </trkpt>
      <trkpt lat="45.19777" lon="5.75614">
        <ele>214.8</ele>
        <time>2019-10-25T08:54:42.196Z</time>
      </trkpt>
      <trkpt lat="45.1977" lon="5.75662">
        <ele>214.3</ele>
        <time>2019-10-25T08:54:59.588Z</time>
      </trkpt>
      <trkpt lat="45.19759" lon="5.757">
        <ele>215.2</ele>
        <time>2019-10-25T08:55:13.933Z</time>
      </trkpt>
      <trkpt lat="45.19749" lon="5.75746">
        <ele>216.8</ele>
        <time>2019-10-25T08:55:31.086Z</time>
      </trkpt>
      <trkpt lat="45.19717" lon="5.75829">
        <ele>217.3</ele>
        <time>2019-10-25T08:56:04.381Z</time>
      </trkpt>
      <trkpt lat="45.1968" lon="5.75913">
        <ele>217.7</ele>
        <time>2019-10-25T08:56:39.231Z</time>
      </trkpt>
      <trkpt lat="45.19665" lon="5.75963">
        <ele>216.3</ele>
        <time>2019-10-25T08:56:58.456Z</time>
      </trkpt>
      <trkpt lat="45.19648" lon="5.76026">
        <ele>215.2</ele>
        <time>2019-10-25T08:57:22.104Z</time>
      </trkpt>
      <trkpt lat="45.19645" lon="5.76052">
        <ele>215.3</ele>
        <time>2019-10-25T08:57:31.620Z</time>
      </trkpt>
      <trkpt lat="45.19639" lon="5.76083">
        <ele>215.3</ele>
        <time>2019-10-25T08:57:42.789Z</time>
      </trkpt>
      <trkpt lat="45.19629" lon="5.76159">
        <ele>215.6</ele>
        <time>2019-10-25T08:58:10.088Z</time>
      </trkpt>
      <trkpt lat="45.19624" lon="5.76203">
        <ele>216.1</ele>
        <time>2019-10-25T08:58:25.822Z</time>
      </trkpt>
      <trkpt lat="45.19628" lon="5.76268">
        <ele>217.1</ele>
        <time>2019-10-25T08:58:48.952Z</time>
      </trkpt>
      <trkpt lat="45.1964" lon="5.76382">
        <ele>218.1</ele>
        <time>2019-10-25T08:59:29.489Z</time>
      </trkpt>
      <trkpt lat="45.19653" lon="5.76442">
        <ele>217.4</ele>
        <time>2019-10-25T08:59:51.652Z</time>
      </trkpt>
      <trkpt lat="45.1967" lon="5.76498">
        <ele>215.2</ele>
        <time>2019-10-25T09:00:13.106Z</time>
      </trkpt>
      <trkpt lat="45.1969" lon="5.76555">
        <ele>215</ele>
        <time>2019-10-25T09:00:35.594Z</time>
      </trkpt>
      <trkpt lat="45.1971" lon="5.76599">
        <ele>215.1</ele>
        <time>2019-10-25T09:00:54.035Z</time>
      </trkpt>
      <trkpt lat="45.1971" lon="5.76599">
        <ele>215.1</ele>
        <time>2019-10-25T09:00:54.307Z</time>
      </trkpt>
      <trkpt lat="45.19713" lon="5.76606">
        <ele>215.2</ele>
        <time>2019-10-25T09:00:57.196Z</time>
      </trkpt>
      <trkpt lat="45.19824" lon="5.76826">
        <ele>213.4</ele>
        <time>2019-10-25T09:02:32.602Z</time>
      </trkpt>
      <trkpt lat="45.19844" lon="5.76874">
        <ele>214</ele>
        <time>2019-10-25T09:02:52.264Z</time>
      </trkpt>
      <trkpt lat="45.19866" lon="5.76905">
        <ele>214.5</ele>
        <time>2019-10-25T09:03:07.777Z</time>
      </trkpt>
      <trkpt lat="45.1988" lon="5.76927">
        <ele>214.7</ele>
        <time>2019-10-25T09:03:18.229Z</time>
      </trkpt>
      <trkpt lat="45.19891" lon="5.76952">
        <ele>215.2</ele>
        <time>2019-10-25T09:03:28.621Z</time>
      </trkpt>
      <trkpt lat="45.19909" lon="5.76974">
        <ele>215.5</ele>
        <time>2019-10-25T09:03:40.508Z</time>
      </trkpt>
      <trkpt lat="45.19917" lon="5.76983">
        <ele>215.6</ele>
        <time>2019-10-25T09:03:45.616Z</time>
      </trkpt>
      <trkpt lat="45.1993" lon="5.76994">
        <ele>215.7</ele>
        <time>2019-10-25T09:03:53.189Z</time>
      </trkpt>
      <trkpt lat="45.19951" lon="5.77014">
        <ele>216</ele>
        <time>2019-10-25T09:04:05.844Z</time>
      </trkpt>
      <trkpt lat="45.1999" lon="5.77046">
        <ele>216.7</ele>
        <time>2019-10-25T09:04:28.386Z</time>
      </trkpt>
      <trkpt lat="45.20046" lon="5.77101">
        <ele>217.8</ele>
        <time>2019-10-25T09:05:02.463Z</time>
      </trkpt>
      <trkpt lat="45.20076" lon="5.77144">
        <ele>216.7</ele>
        <time>2019-10-25T09:05:23.798Z</time>
      </trkpt>
      <trkpt lat="45.20094" lon="5.77191">
        <ele>216.1</ele>
        <time>2019-10-25T09:05:42.659Z</time>
      </trkpt>
      <trkpt lat="45.20103" lon="5.77232">
        <ele>216.5</ele>
        <time>2019-10-25T09:05:57.800Z</time>
      </trkpt>
      <trkpt lat="45.20127" lon="5.77381">
        <ele>216.9</ele>
        <time>2019-10-25T09:06:51.689Z</time>
      </trkpt>
      <trkpt lat="45.20138" lon="5.77397">
        <ele>217.3</ele>
        <time>2019-10-25T09:06:59.571Z</time>
      </trkpt>
      <trkpt lat="45.20138" lon="5.77402">
        <ele>217.5</ele>
        <time>2019-10-25T09:07:01.334Z</time>
      </trkpt>
      <trkpt lat="45.20139" lon="5.77414">
        <ele>217.9</ele>
        <time>2019-10-25T09:07:05.594Z</time>
      </trkpt>
      <trkpt lat="45.20139" lon="5.77414">
        <ele>217.9</ele>
        <time>2019-10-25T09:07:05.594Z</time>
      </trkpt>
      <trkpt lat="45.2014" lon="5.77427">
        <ele>218</ele>
        <time>2019-10-25T09:07:10.205Z</time>
      </trkpt>
      <trkpt lat="45.2014" lon="5.7743">
        <ele>218</ele>
        <time>2019-10-25T09:07:11.263Z</time>
      </trkpt>
      <trkpt lat="45.20137" lon="5.7743">
        <ele>218</ele>
        <time>2019-10-25T09:07:12.764Z</time>
      </trkpt>
      <trkpt lat="45.20137" lon="5.77433">
        <ele>218</ele>
        <time>2019-10-25T09:07:13.822Z</time>
      </trkpt>
      <trkpt lat="45.2014" lon="5.77432">
        <ele>218</ele>
        <time>2019-10-25T09:07:15.364Z</time>
      </trkpt>
      <trkpt lat="45.2014" lon="5.77437">
        <ele>218</ele>
        <time>2019-10-25T09:07:17.127Z</time>
      </trkpt>
      <trkpt lat="45.20137" lon="5.77447">
        <ele>218</ele>
        <time>2019-10-25T09:07:20.959Z</time>
      </trkpt>
      <trkpt lat="45.20128" lon="5.77548">
        <ele>216.7</ele>
        <time>2019-10-25T09:07:56.853Z</time>
      </trkpt>
      <trkpt lat="45.20124" lon="5.7758">
        <ele>215.6</ele>
        <time>2019-10-25T09:08:08.312Z</time>
      </trkpt>
      <trkpt lat="45.20111" lon="5.77657">
        <ele>215.1</ele>
        <time>2019-10-25T09:08:36.229Z</time>
      </trkpt>
      <trkpt lat="45.20105" lon="5.77684">
        <ele>215.3</ele>
        <time>2019-10-25T09:08:46.211Z</time>
      </trkpt>
      <trkpt lat="45.20103" lon="5.77693">
        <ele>215.5</ele>
        <time>2019-10-25T09:08:49.538Z</time>
      </trkpt>
      <trkpt lat="45.20097" lon="5.7772">
        <ele>216.1</ele>
        <time>2019-10-25T09:08:59.520Z</time>
      </trkpt>
      <trkpt lat="45.20084" lon="5.77743">
        <ele>216.8</ele>
        <time>2019-10-25T09:09:09.916Z</time>
      </trkpt>
      <trkpt lat="45.20054" lon="5.77779">
        <ele>217</ele>
        <time>2019-10-25T09:09:29.574Z</time>
      </trkpt>
      <trkpt lat="45.19948" lon="5.77882">
        <ele>214.4</ele>
        <time>2019-10-25T09:10:33.855Z</time>
      </trkpt>
      <trkpt lat="45.19948" lon="5.77882">
        <ele>214.4</ele>
        <time>2019-10-25T09:10:33.941Z</time>
      </trkpt>
      <trkpt lat="45.19901" lon="5.77928">
        <ele>212.2</ele>
        <time>2019-10-25T09:11:02.572Z</time>
      </trkpt>
      <trkpt lat="45.19824" lon="5.77997">
        <ele>211.8</ele>
        <time>2019-10-25T09:11:47.937Z</time>
      </trkpt>
      <trkpt lat="45.19813" lon="5.78004">
        <ele>211.5</ele>
        <time>2019-10-25T09:11:54.059Z</time>
      </trkpt>
      <trkpt lat="45.19789" lon="5.78012">
        <ele>211.1</ele>
        <time>2019-10-25T09:12:06.379Z</time>
      </trkpt>
      <trkpt lat="45.197" lon="5.7802">
        <ele>209.9</ele>
        <time>2019-10-25T09:12:51.345Z</time>
      </trkpt>
      <trkpt lat="45.19635" lon="5.78045">
        <ele>211.6</ele>
        <time>2019-10-25T09:13:24.792Z</time>
      </trkpt>
      <trkpt lat="45.19517" lon="5.78064">
        <ele>213.9</ele>
        <time>2019-10-25T09:14:24.480Z</time>
      </trkpt>
      <trkpt lat="45.19309" lon="5.78111">
        <ele>219.6</ele>
        <time>2019-10-25T09:16:09.699Z</time>
      </trkpt>
      <trkpt lat="45.1927" lon="5.78125">
        <ele>218.5</ele>
        <time>2019-10-25T09:16:30.027Z</time>
      </trkpt>
      <trkpt lat="45.19248" lon="5.78142">
        <ele>217.2</ele>
        <time>2019-10-25T09:16:42.357Z</time>
      </trkpt>
      <trkpt lat="45.19227" lon="5.78168">
        <ele>216.8</ele>
        <time>2019-10-25T09:16:56.054Z</time>
      </trkpt>
      <trkpt lat="45.19215" lon="5.78188">
        <ele>216.7</ele>
        <time>2019-10-25T09:17:05.451Z</time>
      </trkpt>
      <trkpt lat="45.19201" lon="5.78223">
        <ele>216.5</ele>
        <time>2019-10-25T09:17:19.515Z</time>
      </trkpt>
      <trkpt lat="45.19186" lon="5.78248">
        <ele>216.9</ele>
        <time>2019-10-25T09:17:31.174Z</time>
      </trkpt>
      <trkpt lat="45.19179" lon="5.78265">
        <ele>217.1</ele>
        <time>2019-10-25T09:17:38.209Z</time>
      </trkpt>
      <trkpt lat="45.19159" lon="5.78309">
        <ele>217.1</ele>
        <time>2019-10-25T09:17:56.605Z</time>
      </trkpt>
      <trkpt lat="45.19123" lon="5.78391">
        <ele>216</ele>
        <time>2019-10-25T09:18:30.628Z</time>
      </trkpt>
      <trkpt lat="45.19101" lon="5.78458">
        <ele>215.8</ele>
        <time>2019-10-25T09:18:56.842Z</time>
      </trkpt>
      <trkpt lat="45.19084" lon="5.7853">
        <ele>215</ele>
        <time>2019-10-25T09:19:23.619Z</time>
      </trkpt>
      <trkpt lat="45.19067" lon="5.78614">
        <ele>214.7</ele>
        <time>2019-10-25T09:19:54.486Z</time>
      </trkpt>
      <trkpt lat="45.19025" lon="5.78799">
        <ele>212.4</ele>
        <time>2019-10-25T09:21:03.112Z</time>
      </trkpt>
      <trkpt lat="45.19005" lon="5.78944">
        <ele>216.4</ele>
        <time>2019-10-25T09:21:55.181Z</time>
      </trkpt>
      <trkpt lat="45.18998" lon="5.79045">
        <ele>216</ele>
        <time>2019-10-25T09:22:30.696Z</time>
      </trkpt>
      <trkpt lat="45.18993" lon="5.79148">
        <ele>215.3</ele>
        <time>2019-10-25T09:23:07.435Z</time>
      </trkpt>
      <trkpt lat="45.18996" lon="5.79186">
        <ele>214.7</ele>
        <time>2019-10-25T09:23:20.903Z</time>
      </trkpt>
      <trkpt lat="45.18996" lon="5.79285">
        <ele>214.4</ele>
        <time>2019-10-25T09:23:55.674Z</time>
      </trkpt>
      <trkpt lat="45.18994" lon="5.79433">
        <ele>215.2</ele>
        <time>2019-10-25T09:24:47.767Z</time>
      </trkpt>
      <trkpt lat="45.1899" lon="5.79521">
        <ele>216.8</ele>
        <time>2019-10-25T09:25:18.843Z</time>
      </trkpt>
      <trkpt lat="45.1899" lon="5.79532">
        <ele>216.8</ele>
        <time>2019-10-25T09:25:23.005Z</time>
      </trkpt>
      <trkpt lat="45.18987" lon="5.79569">
        <ele>216.7</ele>
        <time>2019-10-25T09:25:35.942Z</time>
      </trkpt>
      <trkpt lat="45.18979" lon="5.7966">
        <ele>215.3</ele>
        <time>2019-10-25T09:26:08.383Z</time>
      </trkpt>
      <trkpt lat="45.18974" lon="5.79691">
        <ele>215.5</ele>
        <time>2019-10-25T09:26:19.377Z</time>
      </trkpt>
      <trkpt lat="45.18974" lon="5.79691">
        <ele>215.4</ele>
        <time>2019-10-25T09:26:19.561Z</time>
      </trkpt>
      <trkpt lat="45.18971" lon="5.79715">
        <ele>215.7</ele>
        <time>2019-10-25T09:26:28.157Z</time>
      </trkpt>
      <trkpt lat="45.18959" lon="5.79766">
        <ele>216.7</ele>
        <time>2019-10-25T09:26:47.118Z</time>
      </trkpt>
      <trkpt lat="45.18936" lon="5.79827">
        <ele>219.4</ele>
        <time>2019-10-25T09:27:11.515Z</time>
      </trkpt>
      <trkpt lat="45.18909" lon="5.79892">
        <ele>219.9</ele>
        <time>2019-10-25T09:27:38.122Z</time>
      </trkpt>
      <trkpt lat="45.18773" lon="5.80196">
        <ele>217.1</ele>
        <time>2019-10-25T09:29:45.104Z</time>
      </trkpt>
      <trkpt lat="45.1875" lon="5.80273">
        <ele>217.3</ele>
        <time>2019-10-25T09:30:14.597Z</time>
      </trkpt>
      <trkpt lat="45.18743" lon="5.80311">
        <ele>217.4</ele>
        <time>2019-10-25T09:30:28.448Z</time>
      </trkpt>
      <trkpt lat="45.18744" lon="5.80351">
        <ele>217.7</ele>
        <time>2019-10-25T09:30:42.563Z</time>
      </trkpt>
      <trkpt lat="45.18758" lon="5.80415">
        <ele>217.9</ele>
        <time>2019-10-25T09:31:06.195Z</time>
      </trkpt>
      <trkpt lat="45.18796" lon="5.80468">
        <ele>218.5</ele>
        <time>2019-10-25T09:31:32.858Z</time>
      </trkpt>
      <trkpt lat="45.18815" lon="5.8048">
        <ele>219</ele>
        <time>2019-10-25T09:31:43.264Z</time>
      </trkpt>
      <trkpt lat="45.18845" lon="5.80496">
        <ele>220</ele>
        <time>2019-10-25T09:31:59.301Z</time>
      </trkpt>
      <trkpt lat="45.1888" lon="5.80503">
        <ele>220.5</ele>
        <time>2019-10-25T09:32:16.987Z</time>
      </trkpt>
      <trkpt lat="45.18921" lon="5.80506">
        <ele>220.7</ele>
        <time>2019-10-25T09:32:37.530Z</time>
      </trkpt>
      <trkpt lat="45.18988" lon="5.80497">
        <ele>220.9</ele>
        <time>2019-10-25T09:33:11.205Z</time>
      </trkpt>
      <trkpt lat="45.19032" lon="5.80476">
        <ele>220.6</ele>
        <time>2019-10-25T09:33:34.434Z</time>
      </trkpt>
      <trkpt lat="45.19057" lon="5.80449">
        <ele>220.5</ele>
        <time>2019-10-25T09:33:50.155Z</time>
      </trkpt>
      <trkpt lat="45.19073" lon="5.80429">
        <ele>220.7</ele>
        <time>2019-10-25T09:34:00.825Z</time>
      </trkpt>
      <trkpt lat="45.19073" lon="5.80429">
        <ele>220.7</ele>
        <time>2019-10-25T09:34:00.825Z</time>
      </trkpt>
      <trkpt lat="45.19082" lon="5.80417">
        <ele>220.9</ele>
        <time>2019-10-25T09:34:07.005Z</time>
      </trkpt>
      <trkpt lat="45.19118" lon="5.80322">
        <ele>217.7</ele>
        <time>2019-10-25T09:34:45.042Z</time>
      </trkpt>
      <trkpt lat="45.19134" lon="5.80267">
        <ele>217.2</ele>
        <time>2019-10-25T09:35:06.024Z</time>
      </trkpt>
      <trkpt lat="45.19186" lon="5.80033">
        <ele>218</ele>
        <time>2019-10-25T09:36:32.546Z</time>
      </trkpt>
      <trkpt lat="45.19203" lon="5.79971">
        <ele>219.6</ele>
        <time>2019-10-25T09:36:56.006Z</time>
      </trkpt>
      <trkpt lat="45.19251" lon="5.79747">
        <ele>216.1</ele>
        <time>2019-10-25T09:38:18.566Z</time>
      </trkpt>
      <trkpt lat="45.19284" lon="5.79601">
        <ele>220.2</ele>
        <time>2019-10-25T09:39:12.633Z</time>
      </trkpt>
      <trkpt lat="45.19296" lon="5.79538">
        <ele>220.8</ele>
        <time>2019-10-25T09:39:35.646Z</time>
      </trkpt>
      <trkpt lat="45.19322" lon="5.79446">
        <ele>218.6</ele>
        <time>2019-10-25T09:40:10.599Z</time>
      </trkpt>
      <trkpt lat="45.19396" lon="5.79258">
        <ele>217.7</ele>
        <time>2019-10-25T09:41:26.532Z</time>
      </trkpt>
      <trkpt lat="45.19427" lon="5.792">
        <ele>216.6</ele>
        <time>2019-10-25T09:41:52.201Z</time>
      </trkpt>
      <trkpt lat="45.1944" lon="5.79184">
        <ele>216.7</ele>
        <time>2019-10-25T09:42:00.812Z</time>
      </trkpt>
      <trkpt lat="45.1946" lon="5.79162">
        <ele>217.5</ele>
        <time>2019-10-25T09:42:13.474Z</time>
      </trkpt>
      <trkpt lat="45.19474" lon="5.79153">
        <ele>218.2</ele>
        <time>2019-10-25T09:42:21.165Z</time>
      </trkpt>
      <trkpt lat="45.19491" lon="5.79147">
        <ele>218.9</ele>
        <time>2019-10-25T09:42:29.931Z</time>
      </trkpt>
      <trkpt lat="45.19513" lon="5.79144">
        <ele>219.6</ele>
        <time>2019-10-25T09:42:40.990Z</time>
      </trkpt>
      <trkpt lat="45.1954" lon="5.79146">
        <ele>220.5</ele>
        <time>2019-10-25T09:42:54.519Z</time>
      </trkpt>
      <trkpt lat="45.19573" lon="5.7916">
        <ele>222.2</ele>
        <time>2019-10-25T09:43:11.754Z</time>
      </trkpt>
      <trkpt lat="45.19598" lon="5.7918">
        <ele>221.1</ele>
        <time>2019-10-25T09:43:26.114Z</time>
      </trkpt>
      <trkpt lat="45.19642" lon="5.79222">
        <ele>217.1</ele>
        <time>2019-10-25T09:43:52.648Z</time>
      </trkpt>
      <trkpt lat="45.19703" lon="5.79299">
        <ele>216.1</ele>
        <time>2019-10-25T09:44:33.499Z</time>
      </trkpt>
      <trkpt lat="45.19725" lon="5.79343">
        <ele>216.3</ele>
        <time>2019-10-25T09:44:52.522Z</time>
      </trkpt>
      <trkpt lat="45.1979" lon="5.79522">
        <ele>217.7</ele>
        <time>2019-10-25T09:46:03.524Z</time>
      </trkpt>
      <trkpt lat="45.19809" lon="5.79561">
        <ele>219.2</ele>
        <time>2019-10-25T09:46:20.242Z</time>
      </trkpt>
      <trkpt lat="45.19809" lon="5.79561">
        <ele>219.2</ele>
        <time>2019-10-25T09:46:20.242Z</time>
      </trkpt>
      <trkpt lat="45.19822" lon="5.79587">
        <ele>220.2</ele>
        <time>2019-10-25T09:46:31.483Z</time>
      </trkpt>
      <trkpt lat="45.19885" lon="5.7975">
        <ele>219.6</ele>
        <time>2019-10-25T09:47:37.033Z</time>
      </trkpt>
      <trkpt lat="45.19905" lon="5.79783">
        <ele>219.7</ele>
        <time>2019-10-25T09:47:52.380Z</time>
      </trkpt>
      <trkpt lat="45.19931" lon="5.7981">
        <ele>220.2</ele>
        <time>2019-10-25T09:48:08.501Z</time>
      </trkpt>
      <trkpt lat="45.19948" lon="5.7982">
        <ele>220.6</ele>
        <time>2019-10-25T09:48:17.709Z</time>
      </trkpt>
      <trkpt lat="45.19971" lon="5.79829">
        <ele>221.2</ele>
        <time>2019-10-25T09:48:29.647Z</time>
      </trkpt>
      <trkpt lat="45.19989" lon="5.79831">
        <ele>221.7</ele>
        <time>2019-10-25T09:48:38.681Z</time>
      </trkpt>
      <trkpt lat="45.20019" lon="5.79829">
        <ele>221.8</ele>
        <time>2019-10-25T09:48:53.709Z</time>
      </trkpt>
      <trkpt lat="45.20068" lon="5.79803">
        <ele>219.4</ele>
        <time>2019-10-25T09:49:19.885Z</time>
      </trkpt>
      <trkpt lat="45.20196" lon="5.79695">
        <ele>215.3</ele>
        <time>2019-10-25T09:50:34.398Z</time>
      </trkpt>
      <trkpt lat="45.20262" lon="5.79639">
        <ele>214.9</ele>
        <time>2019-10-25T09:51:12.875Z</time>
      </trkpt>
      <trkpt lat="45.20292" lon="5.79613">
        <ele>215.7</ele>
        <time>2019-10-25T09:51:30.464Z</time>
      </trkpt>
      <trkpt lat="45.20341" lon="5.79578">
        <ele>217.2</ele>
        <time>2019-10-25T09:51:57.913Z</time>
      </trkpt>
      <trkpt lat="45.20361" lon="5.79566">
        <ele>217.4</ele>
        <time>2019-10-25T09:52:08.778Z</time>
      </trkpt>
      <trkpt lat="45.20363" lon="5.79569">
        <ele>217.5</ele>
        <time>2019-10-25T09:52:10.234Z</time>
      </trkpt>
      <trkpt lat="45.20411" lon="5.79575">
        <ele>218.5</ele>
        <time>2019-10-25T09:52:34.345Z</time>
      </trkpt>
      <trkpt lat="45.20441" lon="5.79584">
        <ele>218.7</ele>
        <time>2019-10-25T09:52:49.688Z</time>
      </trkpt>
      <trkpt lat="45.2047" lon="5.79601">
        <ele>218.6</ele>
        <time>2019-10-25T09:53:05.388Z</time>
      </trkpt>
      <trkpt lat="45.20489" lon="5.79614">
        <ele>218.5</ele>
        <time>2019-10-25T09:53:15.942Z</time>
      </trkpt>
      <trkpt lat="45.205" lon="5.79624">
        <ele>218.5</ele>
        <time>2019-10-25T09:53:22.478Z</time>
      </trkpt>
      <trkpt lat="45.20529" lon="5.79655">
        <ele>219.7</ele>
        <time>2019-10-25T09:53:40.644Z</time>
      </trkpt>
      <trkpt lat="45.20555" lon="5.79691">
        <ele>221.3</ele>
        <time>2019-10-25T09:53:58.819Z</time>
      </trkpt>
      <trkpt lat="45.20582" lon="5.79744">
        <ele>222.9</ele>
        <time>2019-10-25T09:54:21.877Z</time>
      </trkpt>
      <trkpt lat="45.20604" lon="5.79815">
        <ele>220.8</ele>
        <time>2019-10-25T09:54:49.222Z</time>
      </trkpt>
      <trkpt lat="45.2062" lon="5.79873">
        <ele>220.6</ele>
        <time>2019-10-25T09:55:11.181Z</time>
      </trkpt>
      <trkpt lat="45.20667" lon="5.80047">
        <ele>222.1</ele>
        <time>2019-10-25T09:56:16.877Z</time>
      </trkpt>
      <trkpt lat="45.20677" lon="5.80093">
        <ele>222.6</ele>
        <time>2019-10-25T09:56:33.848Z</time>
      </trkpt>
      <trkpt lat="45.20687" lon="5.80171">
        <ele>221.5</ele>
        <time>2019-10-25T09:57:01.798Z</time>
      </trkpt>
      <trkpt lat="45.207" lon="5.80281">
        <ele>221.5</ele>
        <time>2019-10-25T09:57:41.119Z</time>
      </trkpt>
      <trkpt lat="45.20711" lon="5.80415">
        <ele>223.8</ele>
        <time>2019-10-25T09:58:28.679Z</time>
      </trkpt>
      <trkpt lat="45.20712" lon="5.80472">
        <ele>223.2</ele>
        <time>2019-10-25T09:58:48.780Z</time>
      </trkpt>
      <trkpt lat="45.2071" lon="5.80542">
        <ele>222.4</ele>
        <time>2019-10-25T09:59:13.478Z</time>
      </trkpt>
      <trkpt lat="45.20705" lon="5.80592">
        <ele>221.9</ele>
        <time>2019-10-25T09:59:31.282Z</time>
      </trkpt>
      <trkpt lat="45.20686" lon="5.80711">
        <ele>220.4</ele>
        <time>2019-10-25T10:00:14.298Z</time>
      </trkpt>
      <trkpt lat="45.2068" lon="5.80769">
        <ele>220.5</ele>
        <time>2019-10-25T10:00:34.965Z</time>
      </trkpt>
      <trkpt lat="45.20681" lon="5.81118">
        <ele>221.1</ele>
        <time>2019-10-25T10:02:38.003Z</time>
      </trkpt>
      <trkpt lat="45.20681" lon="5.81118">
        <ele>221.1</ele>
        <time>2019-10-25T10:02:38.003Z</time>
      </trkpt>
      <trkpt lat="45.20681" lon="5.8121">
        <ele>221.9</ele>
        <time>2019-10-25T10:03:10.437Z</time>
      </trkpt>
      <trkpt lat="45.2068" lon="5.81325">
        <ele>223.6</ele>
        <time>2019-10-25T10:03:50.982Z</time>
      </trkpt>
      <trkpt lat="45.20678" lon="5.8137">
        <ele>222.3</ele>
        <time>2019-10-25T10:04:06.878Z</time>
      </trkpt>
      <trkpt lat="45.20671" lon="5.8141">
        <ele>220.4</ele>
        <time>2019-10-25T10:04:21.408Z</time>
      </trkpt>
      <trkpt lat="45.20664" lon="5.81435">
        <ele>219.8</ele>
        <time>2019-10-25T10:04:30.892Z</time>
      </trkpt>
      <trkpt lat="45.20613" lon="5.81477">
        <ele>220.7</ele>
        <time>2019-10-25T10:05:00.396Z</time>
      </trkpt>
      <trkpt lat="45.20555" lon="5.81537">
        <ele>220.9</ele>
        <time>2019-10-25T10:05:36.309Z</time>
      </trkpt>
      <trkpt lat="45.20512" lon="5.81586">
        <ele>218</ele>
        <time>2019-10-25T10:06:03.902Z</time>
      </trkpt>
      <trkpt lat="45.20483" lon="5.81651">
        <ele>217.2</ele>
        <time>2019-10-25T10:06:31.026Z</time>
      </trkpt>
      <trkpt lat="45.20388" lon="5.8185">
        <ele>217.1</ele>
        <time>2019-10-25T10:07:55.772Z</time>
      </trkpt>
      <trkpt lat="45.20369" lon="5.81894">
        <ele>218.8</ele>
        <time>2019-10-25T10:08:13.966Z</time>
      </trkpt>
      <trkpt lat="45.20367" lon="5.81921">
        <ele>219.8</ele>
        <time>2019-10-25T10:08:23.538Z</time>
      </trkpt>
      <trkpt lat="45.20369" lon="5.81946">
        <ele>219.7</ele>
        <time>2019-10-25T10:08:32.409Z</time>
      </trkpt>
      <trkpt lat="45.20404" lon="5.82046">
        <ele>218.8</ele>
        <time>2019-10-25T10:09:11.775Z</time>
      </trkpt>
      <trkpt lat="45.20425" lon="5.82094">
        <ele>218.3</ele>
        <time>2019-10-25T10:09:31.695Z</time>
      </trkpt>
      <trkpt lat="45.20449" lon="5.82139">
        <ele>219.9</ele>
        <time>2019-10-25T10:09:51.593Z</time>
      </trkpt>
      <trkpt lat="45.20514" lon="5.82233">
        <ele>219.2</ele>
        <time>2019-10-25T10:10:38.027Z</time>
      </trkpt>
      <trkpt lat="45.2054" lon="5.82267">
        <ele>220.4</ele>
        <time>2019-10-25T10:10:55.717Z</time>
      </trkpt>
      <trkpt lat="45.20571" lon="5.82299">
        <ele>221.3</ele>
        <time>2019-10-25T10:11:14.897Z</time>
      </trkpt>
      <trkpt lat="45.20656" lon="5.82377">
        <ele>218.9</ele>
        <time>2019-10-25T10:12:05.544Z</time>
      </trkpt>
      <trkpt lat="45.20675" lon="5.82391">
        <ele>218.1</ele>
        <time>2019-10-25T10:12:16.256Z</time>
      </trkpt>
      <trkpt lat="45.20718" lon="5.82427">
        <ele>216.7</ele>
        <time>2019-10-25T10:12:41.236Z</time>
      </trkpt>
      <trkpt lat="45.20758" lon="5.82472">
        <ele>217.1</ele>
        <time>2019-10-25T10:13:06.776Z</time>
      </trkpt>
      <trkpt lat="45.20771" lon="5.82488">
        <ele>217.6</ele>
        <time>2019-10-25T10:13:15.386Z</time>
      </trkpt>
      <trkpt lat="45.20866" lon="5.8259">
        <ele>219.8</ele>
        <time>2019-10-25T10:14:14.990Z</time>
      </trkpt>
      <trkpt lat="45.20927" lon="5.82662">
        <ele>221.6</ele>
        <time>2019-10-25T10:14:54.688Z</time>
      </trkpt>
      <trkpt lat="45.2101" lon="5.82746">
        <ele>223</ele>
        <time>2019-10-25T10:15:45.695Z</time>
      </trkpt>
      <trkpt lat="45.21047" lon="5.82785">
        <ele>223.3</ele>
        <time>2019-10-25T10:16:08.755Z</time>
      </trkpt>
      <trkpt lat="45.21047" lon="5.82785">
        <ele>223.3</ele>
        <time>2019-10-25T10:16:08.755Z</time>
      </trkpt>
      <trkpt lat="45.21094" lon="5.82834">
        <ele>221.9</ele>
        <time>2019-10-25T10:16:37.935Z</time>
      </trkpt>
      <trkpt lat="45.21108" lon="5.82849">
        <ele>221.8</ele>
        <time>2019-10-25T10:16:46.712Z</time>
      </trkpt>
      <trkpt lat="45.2114" lon="5.8289">
        <ele>222.2</ele>
        <time>2019-10-25T10:17:08.282Z</time>
      </trkpt>
      <trkpt lat="45.2118" lon="5.82924">
        <ele>222.5</ele>
        <time>2019-10-25T10:17:31.611Z</time>
      </trkpt>
      <trkpt lat="45.21196" lon="5.82941">
        <ele>221.9</ele>
        <time>2019-10-25T10:17:41.611Z</time>
      </trkpt>
      <trkpt lat="45.21214" lon="5.82957">
        <ele>221.4</ele>
        <time>2019-10-25T10:17:52.238Z</time>
      </trkpt>
      <trkpt lat="45.21231" lon="5.82967">
        <ele>221</ele>
        <time>2019-10-25T10:18:01.446Z</time>
      </trkpt>
      <trkpt lat="45.21235" lon="5.8296">
        <ele>220.9</ele>
        <time>2019-10-25T10:18:04.623Z</time>
      </trkpt>
      <trkpt lat="45.21236" lon="5.82954">
        <ele>220.8</ele>
        <time>2019-10-25T10:18:06.796Z</time>
      </trkpt>
      <trkpt lat="45.21227" lon="5.82946">
        <ele>221</ele>
        <time>2019-10-25T10:18:12.109Z</time>
      </trkpt>
      <trkpt lat="45.21227" lon="5.82938">
        <ele>220.9</ele>
        <time>2019-10-25T10:18:14.929Z</time>
      </trkpt>
      <trkpt lat="45.21264" lon="5.82858">
        <ele>220.8</ele>
        <time>2019-10-25T10:18:48.664Z</time>
      </trkpt>
      <trkpt lat="45.21289" lon="5.82808">
        <ele>221.6</ele>
        <time>2019-10-25T10:19:10.277Z</time>
      </trkpt>
      <trkpt lat="45.21288" lon="5.828">
        <ele>221.6</ele>
        <time>2019-10-25T10:19:13.141Z</time>
      </trkpt>
      <trkpt lat="45.21315" lon="5.82741">
        <ele>224.2</ele>
        <time>2019-10-25T10:19:37.942Z</time>
      </trkpt>
      <trkpt lat="45.21372" lon="5.82688">
        <ele>226</ele>
        <time>2019-10-25T10:20:12.038Z</time>
      </trkpt>
      <trkpt lat="45.21402" lon="5.82648">
        <ele>224.7</ele>
        <time>2019-10-25T10:20:32.633Z</time>
      </trkpt>
      <trkpt lat="45.21426" lon="5.82622">
        <ele>223.1</ele>
        <time>2019-10-25T10:20:47.740Z</time>
      </trkpt>
      <trkpt lat="45.21608" lon="5.82484">
        <ele>219.1</ele>
        <time>2019-10-25T10:22:30.986Z</time>
      </trkpt>
      <trkpt lat="45.21656" lon="5.82457">
        <ele>221.4</ele>
        <time>2019-10-25T10:22:56.821Z</time>
      </trkpt>
      <trkpt lat="45.21697" lon="5.82422">
        <ele>224.1</ele>
        <time>2019-10-25T10:23:20.760Z</time>
      </trkpt>
      <trkpt lat="45.21762" lon="5.82378">
        <ele>225.8</ele>
        <time>2019-10-25T10:23:56.793Z</time>
      </trkpt>
      <trkpt lat="45.21788" lon="5.82371">
        <ele>224.8</ele>
        <time>2019-10-25T10:24:10.035Z</time>
      </trkpt>
      <trkpt lat="45.21806" lon="5.82369">
        <ele>223.9</ele>
        <time>2019-10-25T10:24:19.069Z</time>
      </trkpt>
      <trkpt lat="45.21813" lon="5.82363">
        <ele>223.7</ele>
        <time>2019-10-25T10:24:23.161Z</time>
      </trkpt>
      <trkpt lat="45.21819" lon="5.82376">
        <ele>223.2</ele>
        <time>2019-10-25T10:24:28.639Z</time>
      </trkpt>
      <trkpt lat="45.21822" lon="5.82381">
        <ele>223</ele>
        <time>2019-10-25T10:24:30.954Z</time>
      </trkpt>
      <trkpt lat="45.21822" lon="5.82381">
        <ele>223</ele>
        <time>2019-10-25T10:24:30.954Z</time>
      </trkpt>
      <trkpt lat="45.21829" lon="5.82398">
        <ele>222.4</ele>
        <time>2019-10-25T10:24:37.895Z</time>
      </trkpt>
      <trkpt lat="45.21838" lon="5.8242">
        <ele>221.9</ele>
        <time>2019-10-25T10:24:46.862Z</time>
      </trkpt>
      <trkpt lat="45.21857" lon="5.82467">
        <ele>221.4</ele>
        <time>2019-10-25T10:25:05.962Z</time>
      </trkpt>
      <trkpt lat="45.21857" lon="5.82475">
        <ele>221.5</ele>
        <time>2019-10-25T10:25:08.782Z</time>
      </trkpt>
      <trkpt lat="45.21847" lon="5.82503">
        <ele>222.1</ele>
        <time>2019-10-25T10:25:19.847Z</time>
      </trkpt>
      <trkpt lat="45.21846" lon="5.82516">
        <ele>221.9</ele>
        <time>2019-10-25T10:25:24.456Z</time>
      </trkpt>
      <trkpt lat="45.21848" lon="5.82524">
        <ele>221.7</ele>
        <time>2019-10-25T10:25:27.448Z</time>
      </trkpt>
      <trkpt lat="45.21962" lon="5.82641">
        <ele>217.5</ele>
        <time>2019-10-25T10:26:37.836Z</time>
      </trkpt>
      <trkpt lat="45.21982" lon="5.82661">
        <ele>216.7</ele>
        <time>2019-10-25T10:26:50.077Z</time>
      </trkpt>
      <trkpt lat="45.22002" lon="5.82682">
        <ele>216.4</ele>
        <time>2019-10-25T10:27:02.524Z</time>
      </trkpt>
      <trkpt lat="45.2202" lon="5.827">
        <ele>216.8</ele>
        <time>2019-10-25T10:27:13.541Z</time>
      </trkpt>
      <trkpt lat="45.2203" lon="5.827">
        <ele>216.9</ele>
        <time>2019-10-25T10:27:18.545Z</time>
      </trkpt>
      <trkpt lat="45.2203" lon="5.827">
        <ele>216.9</ele>
        <time>2019-10-25T10:27:18.545Z</time>
      </trkpt>
      <trkpt lat="45.22039" lon="5.827">
        <ele>216.9</ele>
        <time>2019-10-25T10:27:23.048Z</time>
      </trkpt>
      <trkpt lat="45.22141" lon="5.82625">
        <ele>217.7</ele>
        <time>2019-10-25T10:28:20.526Z</time>
      </trkpt>
      <trkpt lat="45.22201" lon="5.82593">
        <ele>218</ele>
        <time>2019-10-25T10:28:52.597Z</time>
      </trkpt>
      <trkpt lat="45.22213" lon="5.82585">
        <ele>218</ele>
        <time>2019-10-25T10:28:59.231Z</time>
      </trkpt>
      <trkpt lat="45.22328" lon="5.82499">
        <ele>218.9</ele>
        <time>2019-10-25T10:30:04.269Z</time>
      </trkpt>
      <trkpt lat="45.22415" lon="5.8243">
        <ele>220</ele>
        <time>2019-10-25T10:30:54.134Z</time>
      </trkpt>
      <trkpt lat="45.22432" lon="5.82421">
        <ele>219.8</ele>
        <time>2019-10-25T10:31:03.213Z</time>
      </trkpt>
      <trkpt lat="45.22446" lon="5.82419">
        <ele>219.6</ele>
        <time>2019-10-25T10:31:10.254Z</time>
      </trkpt>
      <trkpt lat="45.22453" lon="5.82422">
        <ele>219.5</ele>
        <time>2019-10-25T10:31:13.913Z</time>
      </trkpt>
      <trkpt lat="45.22568" lon="5.82545">
        <ele>219.8</ele>
        <time>2019-10-25T10:32:25.957Z</time>
      </trkpt>
      <trkpt lat="45.22594" lon="5.82583">
        <ele>220.3</ele>
        <time>2019-10-25T10:32:44.628Z</time>
      </trkpt>
      <trkpt lat="45.22647" lon="5.82683">
        <ele>222.6</ele>
        <time>2019-10-25T10:33:28.734Z</time>
      </trkpt>
      <trkpt lat="45.22668" lon="5.82722">
        <ele>222</ele>
        <time>2019-10-25T10:33:46.035Z</time>
      </trkpt>
      <trkpt lat="45.22719" lon="5.8281">
        <ele>220</ele>
        <time>2019-10-25T10:34:26.197Z</time>
      </trkpt>
      <trkpt lat="45.22854" lon="5.83052">
        <ele>218.9</ele>
        <time>2019-10-25T10:36:14.992Z</time>
      </trkpt>
      <trkpt lat="45.22862" lon="5.83069">
        <ele>218.9</ele>
        <time>2019-10-25T10:36:22.197Z</time>
      </trkpt>
      <trkpt lat="45.22872" lon="5.83092">
        <ele>219.2</ele>
        <time>2019-10-25T10:36:31.722Z</time>
      </trkpt>
      <trkpt lat="45.22783" lon="5.83169">
        <ele>219.8</ele>
        <time>2019-10-25T10:37:23.871Z</time>
      </trkpt>
      <trkpt lat="45.22736" lon="5.832">
        <ele>219.3</ele>
        <time>2019-10-25T10:37:49.802Z</time>
      </trkpt>
      <trkpt lat="45.22603" lon="5.83379">
        <ele>218.6</ele>
        <time>2019-10-25T10:39:21.499Z</time>
      </trkpt>
      <trkpt lat="45.2259" lon="5.83394">
        <ele>218.9</ele>
        <time>2019-10-25T10:39:29.881Z</time>
      </trkpt>
      <trkpt lat="45.2259" lon="5.83394">
        <ele>218.9</ele>
        <time>2019-10-25T10:39:29.881Z</time>
      </trkpt>
      <trkpt lat="45.2258" lon="5.83406">
        <ele>219</ele>
        <time>2019-10-25T10:39:36.433Z</time>
      </trkpt>
      <trkpt lat="45.22584" lon="5.83419">
        <ele>219</ele>
        <time>2019-10-25T10:39:41.433Z</time>
      </trkpt>
      <trkpt lat="45.22655" lon="5.83517">
        <ele>217.9</ele>
        <time>2019-10-25T10:40:30.981Z</time>
      </trkpt>
      <trkpt lat="45.22671" lon="5.83539">
        <ele>217.6</ele>
        <time>2019-10-25T10:40:42.126Z</time>
      </trkpt>
      <trkpt lat="45.22736" lon="5.8363">
        <ele>218.9</ele>
        <time>2019-10-25T10:41:27.802Z</time>
      </trkpt>
      <trkpt lat="45.22811" lon="5.83736">
        <ele>220.6</ele>
        <time>2019-10-25T10:42:20.753Z</time>
      </trkpt>
      <trkpt lat="45.22806" lon="5.8374">
        <ele>220.4</ele>
        <time>2019-10-25T10:42:23.625Z</time>
      </trkpt>
      <trkpt lat="45.22784" lon="5.8377">
        <ele>220</ele>
        <time>2019-10-25T10:42:38.888Z</time>
      </trkpt>
      <trkpt lat="45.22762" lon="5.838">
        <ele>220.7</ele>
        <time>2019-10-25T10:42:54.151Z</time>
      </trkpt>
      <trkpt lat="45.22711" lon="5.83866">
        <ele>222.6</ele>
        <time>2019-10-25T10:43:28.680Z</time>
      </trkpt>
      <trkpt lat="45.22659" lon="5.83808">
        <ele>221.9</ele>
        <time>2019-10-25T10:44:01.768Z</time>
      </trkpt>
      <trkpt lat="45.22603" lon="5.83742">
        <ele>222.9</ele>
        <time>2019-10-25T10:44:38.185Z</time>
      </trkpt>
      <trkpt lat="45.22594" lon="5.83739">
        <ele>223</ele>
        <time>2019-10-25T10:44:42.811Z</time>
      </trkpt>
      <trkpt lat="45.22584" lon="5.83741">
        <ele>223.4</ele>
        <time>2019-10-25T10:44:47.864Z</time>
      </trkpt>
      <trkpt lat="45.22566" lon="5.83756">
        <ele>223.8</ele>
        <time>2019-10-25T10:44:58.308Z</time>
      </trkpt>
      <trkpt lat="45.2255" lon="5.83767">
        <ele>223.6</ele>
        <time>2019-10-25T10:45:07.203Z</time>
      </trkpt>
      <trkpt lat="45.22549" lon="5.83767">
        <ele>223.6</ele>
        <time>2019-10-25T10:45:07.703Z</time>
      </trkpt>
      <trkpt lat="45.22549" lon="5.83767">
        <ele>223.6</ele>
        <time>2019-10-25T10:45:07.703Z</time>
      </trkpt>
      <trkpt lat="45.22524" lon="5.8379">
        <ele>223.3</ele>
        <time>2019-10-25T10:45:22.609Z</time>
      </trkpt>
      <trkpt lat="45.22512" lon="5.83793">
        <ele>223.1</ele>
        <time>2019-10-25T10:45:28.706Z</time>
      </trkpt>
      <trkpt lat="45.22499" lon="5.83808">
        <ele>223</ele>
        <time>2019-10-25T10:45:37.088Z</time>
      </trkpt>
      <trkpt lat="45.22492" lon="5.83813">
        <ele>223.1</ele>
        <time>2019-10-25T10:45:41.009Z</time>
      </trkpt>
      <trkpt lat="45.22488" lon="5.83812">
        <ele>223.1</ele>
        <time>2019-10-25T10:45:43.041Z</time>
      </trkpt>
      <trkpt lat="45.22485" lon="5.83811">
        <ele>223.2</ele>
        <time>2019-10-25T10:45:44.583Z</time>
      </trkpt>
      <trkpt lat="45.22482" lon="5.83804">
        <ele>223.1</ele>
        <time>2019-10-25T10:45:47.471Z</time>
      </trkpt>
      <trkpt lat="45.2246" lon="5.8376">
        <ele>222.3</ele>
        <time>2019-10-25T10:46:06.488Z</time>
      </trkpt>
      <trkpt lat="45.22459" lon="5.83757">
        <ele>222.2</ele>
        <time>2019-10-25T10:46:07.658Z</time>
      </trkpt>
      <trkpt lat="45.22458" lon="5.83753">
        <ele>222.1</ele>
        <time>2019-10-25T10:46:09.154Z</time>
      </trkpt>
      <trkpt lat="45.22445" lon="5.83763">
        <ele>222.1</ele>
        <time>2019-10-25T10:46:16.552Z</time>
      </trkpt>
      <trkpt lat="45.2243" lon="5.83776">
        <ele>222.4</ele>
        <time>2019-10-25T10:46:25.346Z</time>
      </trkpt>
      <trkpt lat="45.22413" lon="5.8379">
        <ele>222.9</ele>
        <time>2019-10-25T10:46:35.180Z</time>
      </trkpt>
      <trkpt lat="45.22396" lon="5.83812">
        <ele>223.6</ele>
        <time>2019-10-25T10:46:46.690Z</time>
      </trkpt>
      <trkpt lat="45.22387" lon="5.83829">
        <ele>223.8</ele>
        <time>2019-10-25T10:46:54.185Z</time>
      </trkpt>
      <trkpt lat="45.2238" lon="5.83837">
        <ele>223.7</ele>
        <time>2019-10-25T10:46:58.681Z</time>
      </trkpt>
      <trkpt lat="45.22371" lon="5.83848">
        <ele>223.3</ele>
        <time>2019-10-25T10:47:04.623Z</time>
      </trkpt>
      <trkpt lat="45.22366" lon="5.83856">
        <ele>223.1</ele>
        <time>2019-10-25T10:47:08.392Z</time>
      </trkpt>
      <trkpt lat="45.22355" lon="5.83872">
        <ele>222.7</ele>
        <time>2019-10-25T10:47:16.272Z</time>
      </trkpt>
      <trkpt lat="45.22348" lon="5.8388">
        <ele>222.4</ele>
        <time>2019-10-25T10:47:20.768Z</time>
      </trkpt>
      <trkpt lat="45.22341" lon="5.83893">
        <ele>222.2</ele>
        <time>2019-10-25T10:47:26.535Z</time>
      </trkpt>
      <trkpt lat="45.2232" lon="5.83919">
        <ele>223</ele>
        <time>2019-10-25T10:47:40.477Z</time>
      </trkpt>
      <trkpt lat="45.22309" lon="5.83944">
        <ele>224.1</ele>
        <time>2019-10-25T10:47:50.866Z</time>
      </trkpt>
      <trkpt lat="45.22298" lon="5.83974">
        <ele>225</ele>
        <time>2019-10-25T10:48:02.786Z</time>
      </trkpt>
      <trkpt lat="45.22291" lon="5.83984">
        <ele>225.4</ele>
        <time>2019-10-25T10:48:07.755Z</time>
      </trkpt>
      <trkpt lat="45.22286" lon="5.83989">
        <ele>225.7</ele>
        <time>2019-10-25T10:48:10.815Z</time>
      </trkpt>
      <trkpt lat="45.22278" lon="5.83993">
        <ele>226</ele>
        <time>2019-10-25T10:48:15.059Z</time>
      </trkpt>
      <trkpt lat="45.22238" lon="5.83997">
        <ele>227.8</ele>
        <time>2019-10-25T10:48:35.124Z</time>
      </trkpt>
      <trkpt lat="45.22216" lon="5.83996">
        <ele>229.1</ele>
        <time>2019-10-25T10:48:46.138Z</time>
      </trkpt>
      <trkpt lat="45.22205" lon="5.83994">
        <ele>229.8</ele>
        <time>2019-10-25T10:48:51.687Z</time>
      </trkpt>
      <trkpt lat="45.222" lon="5.83996">
        <ele>230.1</ele>
        <time>2019-10-25T10:48:54.286Z</time>
      </trkpt>
      <trkpt lat="45.22195" lon="5.84003">
        <ele>230.2</ele>
        <time>2019-10-25T10:48:57.800Z</time>
      </trkpt>
      <trkpt lat="45.22173" lon="5.84058">
        <ele>229.1</ele>
        <time>2019-10-25T10:49:20.092Z</time>
      </trkpt>
      <trkpt lat="45.22164" lon="5.84077">
        <ele>228.3</ele>
        <time>2019-10-25T10:49:28.162Z</time>
      </trkpt>
      <trkpt lat="45.22154" lon="5.8409">
        <ele>227.8</ele>
        <time>2019-10-25T10:49:34.947Z</time>
      </trkpt>
      <trkpt lat="45.2211" lon="5.84149">
        <ele>224.3</ele>
        <time>2019-10-25T10:50:05.231Z</time>
      </trkpt>
      <trkpt lat="45.22102" lon="5.84161">
        <ele>223.2</ele>
        <time>2019-10-25T10:50:11.054Z</time>
      </trkpt>
      <trkpt lat="45.22095" lon="5.84166">
        <ele>222.6</ele>
        <time>2019-10-25T10:50:14.975Z</time>
      </trkpt>
      <trkpt lat="45.22113" lon="5.84186">
        <ele>222.9</ele>
        <time>2019-10-25T10:50:26.412Z</time>
      </trkpt>
      <trkpt lat="45.2213" lon="5.84206">
        <ele>223</ele>
        <time>2019-10-25T10:50:37.460Z</time>
      </trkpt>
      <trkpt lat="45.2213" lon="5.84206">
        <ele>223</ele>
        <time>2019-10-25T10:50:37.460Z</time>
      </trkpt>
      <trkpt lat="45.22147" lon="5.84227">
        <ele>222.7</ele>
        <time>2019-10-25T10:50:48.736Z</time>
      </trkpt>
      <trkpt lat="45.22166" lon="5.84255">
        <ele>222</ele>
        <time>2019-10-25T10:51:02.439Z</time>
      </trkpt>
      <trkpt lat="45.22182" lon="5.84282">
        <ele>223.1</ele>
        <time>2019-10-25T10:51:14.875Z</time>
      </trkpt>
      <trkpt lat="45.22263" lon="5.84391">
        <ele>223.4</ele>
        <time>2019-10-25T10:52:10.719Z</time>
      </trkpt>
      <trkpt lat="45.22302" lon="5.8443">
        <ele>222.8</ele>
        <time>2019-10-25T10:52:34.589Z</time>
      </trkpt>
      <trkpt lat="45.22339" lon="5.84479">
        <ele>221.2</ele>
        <time>2019-10-25T10:52:59.907Z</time>
      </trkpt>
      <trkpt lat="45.22382" lon="5.84521">
        <ele>221.1</ele>
        <time>2019-10-25T10:53:26.023Z</time>
      </trkpt>
      <trkpt lat="45.22481" lon="5.84655">
        <ele>223</ele>
        <time>2019-10-25T10:54:34.464Z</time>
      </trkpt>
      <trkpt lat="45.22599" lon="5.84798">
        <ele>221.4</ele>
        <time>2019-10-25T10:55:52.092Z</time>
      </trkpt>
      <trkpt lat="45.22621" lon="5.84829">
        <ele>220.2</ele>
        <time>2019-10-25T10:56:07.601Z</time>
      </trkpt>
      <trkpt lat="45.22663" lon="5.84876">
        <ele>220.1</ele>
        <time>2019-10-25T10:56:34.360Z</time>
      </trkpt>
      <trkpt lat="45.22691" lon="5.84915">
        <ele>221</ele>
        <time>2019-10-25T10:56:53.987Z</time>
      </trkpt>
      <trkpt lat="45.2274" lon="5.84975">
        <ele>221.7</ele>
        <time>2019-10-25T10:57:26.364Z</time>
      </trkpt>
      <trkpt lat="45.22755" lon="5.84991">
        <ele>221.9</ele>
        <time>2019-10-25T10:57:35.752Z</time>
      </trkpt>
      <trkpt lat="45.22755" lon="5.84991">
        <ele>221.9</ele>
        <time>2019-10-25T10:57:35.752Z</time>
      </trkpt>
      <trkpt lat="45.2279" lon="5.85027">
        <ele>222.5</ele>
        <time>2019-10-25T10:57:57.378Z</time>
      </trkpt>
      <trkpt lat="45.2283" lon="5.85077">
        <ele>223.8</ele>
        <time>2019-10-25T10:58:24.044Z</time>
      </trkpt>
      <trkpt lat="45.22903" lon="5.85171">
        <ele>223.1</ele>
        <time>2019-10-25T10:59:13.355Z</time>
      </trkpt>
      <trkpt lat="45.22938" lon="5.85218">
        <ele>223.9</ele>
        <time>2019-10-25T10:59:37.460Z</time>
      </trkpt>
      <trkpt lat="45.22999" lon="5.8529">
        <ele>221.6</ele>
        <time>2019-10-25T11:00:17.152Z</time>
      </trkpt>
      <trkpt lat="45.23005" lon="5.85297">
        <ele>221.3</ele>
        <time>2019-10-25T11:00:21.038Z</time>
      </trkpt>
      <trkpt lat="45.23005" lon="5.85297">
        <ele>221.3</ele>
        <time>2019-10-25T11:00:21.038Z</time>
      </trkpt>
      <trkpt lat="45.23013" lon="5.85307">
        <ele>221.1</ele>
        <time>2019-10-25T11:00:26.371Z</time>
      </trkpt>
      <trkpt lat="45.23034" lon="5.85327">
        <ele>221</ele>
        <time>2019-10-25T11:00:39.024Z</time>
      </trkpt>
      <trkpt lat="45.23051" lon="5.85344">
        <ele>221.4</ele>
        <time>2019-10-25T11:00:49.428Z</time>
      </trkpt>
      <trkpt lat="45.2308" lon="5.85366">
        <ele>222</ele>
        <time>2019-10-25T11:01:05.880Z</time>
      </trkpt>
      <trkpt lat="45.23072" lon="5.85379">
        <ele>222</ele>
        <time>2019-10-25T11:01:11.964Z</time>
      </trkpt>
      <trkpt lat="45.23002" lon="5.85491">
        <ele>222.1</ele>
        <time>2019-10-25T11:02:04.733Z</time>
      </trkpt>
      <trkpt lat="45.22994" lon="5.85508">
        <ele>221.7</ele>
        <time>2019-10-25T11:02:11.938Z</time>
      </trkpt>
      <trkpt lat="45.22989" lon="5.85524">
        <ele>221.2</ele>
        <time>2019-10-25T11:02:18.107Z</time>
      </trkpt>
      <trkpt lat="45.22983" lon="5.8554">
        <ele>220.8</ele>
        <time>2019-10-25T11:02:24.495Z</time>
      </trkpt>
      <trkpt lat="45.22984" lon="5.85542">
        <ele>220.8</ele>
        <time>2019-10-25T11:02:25.359Z</time>
      </trkpt>
      <trkpt lat="45.22947" lon="5.85608">
        <ele>220.9</ele>
        <time>2019-10-25T11:10:22.742Z</time>
      </trkpt>
      <trkpt lat="45.22923" lon="5.85706">
        <ele>220</ele>
        <time>2019-10-25T11:10:25.953Z</time>
      </trkpt>
      <trkpt lat="45.22923" lon="5.8582">
        <ele>220.2</ele>
        <time>2019-10-25T11:10:27.177Z</time>
      </trkpt>
      <trkpt lat="45.22937" lon="5.85936">
        <ele>221.1</ele>
        <time>2019-10-25T11:10:30.237Z</time>
      </trkpt>
      <trkpt lat="45.22978" lon="5.86138">
        <ele>221.7</ele>
        <time>2019-10-25T11:10:32.239Z</time>
      </trkpt>
      <trkpt lat="45.23009" lon="5.86357">
        <ele>221.2</ele>
        <time>2019-10-25T11:10:34.271Z</time>
      </trkpt>
      <trkpt lat="45.23027" lon="5.86379">
        <ele>220.9</ele>
        <time>2019-10-25T11:10:36.933Z</time>
      </trkpt>
      <trkpt lat="45.23183" lon="5.86352">
        <ele>220.8</ele>
        <time>2019-10-25T11:10:38.765Z</time>
      </trkpt>
      <trkpt lat="45.23235" lon="5.86434">
        <ele>221.2</ele>
        <time>2019-10-25T11:10:39.935Z</time>
      </trkpt>
      <trkpt lat="45.23258" lon="5.86466">
        <ele>222.2</ele>
        <time>2019-10-25T11:10:44.179Z</time>
      </trkpt>
      <trkpt lat="45.23284" lon="5.86596">
        <ele>221.8</ele>
        <time>2019-10-25T11:10:47.090Z</time>
      </trkpt>
      <trkpt lat="45.23294" lon="5.86673">
        <ele>221.8</ele>
        <time>2019-10-25T11:10:56.317Z</time>
      </trkpt>
      <trkpt lat="45.23324" lon="5.86679">
        <ele>221.3</ele>
        <time>2019-10-25T11:11:03.478Z</time>
      </trkpt>
      <trkpt lat="45.23325" lon="5.86688">
        <ele>221.5</ele>
        <time>2019-10-25T11:11:36.106Z</time>
      </trkpt>
      <trkpt lat="45.23327" lon="5.8669">
        <ele>221.5</ele>
        <time>2019-10-25T11:11:46.819Z</time>
      </trkpt>
      <trkpt lat="45.23332" lon="5.86695">
        <ele>221.7</ele>
        <time>2019-10-25T11:11:46.819Z</time>
      </trkpt>
      <trkpt lat="45.23336" lon="5.86695">
        <ele>221.7</ele>
        <time>2019-10-25T11:11:56.672Z</time>
      </trkpt>
      <trkpt lat="45.2334" lon="5.86694">
        <ele>221.7</ele>
        <time>2019-10-25T11:13:11.020Z</time>
      </trkpt>
      <trkpt lat="45.23342" lon="5.86701">
        <ele>221.8</ele>
        <time>2019-10-25T11:13:23.035Z</time>
      </trkpt>
      <trkpt lat="45.23343" lon="5.86706">
        <ele>222</ele>
        <time>2019-10-25T11:13:30.701Z</time>
      </trkpt>
      <trkpt lat="45.23342" lon="5.86709">
        <ele>222</ele>
        <time>2019-10-25T11:13:36.775Z</time>
      </trkpt>
      <trkpt lat="45.23334" lon="5.86713">
        <ele>222.1</ele>
        <time>2019-10-25T11:13:38.433Z</time>
      </trkpt>
      <trkpt lat="45.2333" lon="5.86719">
        <ele>222.2</ele>
        <time>2019-10-25T11:13:59.224Z</time>
      </trkpt>
      <trkpt lat="45.2332" lon="5.86741">
        <ele>222.5</ele>
        <time>2019-10-25T11:14:12.272Z</time>
      </trkpt>
      <trkpt lat="45.23309" lon="5.86754">
        <ele>222.4</ele>
        <time>2019-10-25T11:14:17.205Z</time>
      </trkpt>
      <trkpt lat="45.23268" lon="5.86826">
        <ele>220.7</ele>
        <time>2019-10-25T11:14:35.184Z</time>
      </trkpt>
      <trkpt lat="45.23254" lon="5.86849">
        <ele>220.3</ele>
        <time>2019-10-25T11:14:55.623Z</time>
      </trkpt>
      <trkpt lat="45.23254" lon="5.86849">
        <ele>220.3</ele>
        <time>2019-10-25T11:15:00.582Z</time>
      </trkpt>
      <trkpt lat="45.23241" lon="5.8687">
        <ele>220.5</ele>
        <time>2019-10-25T11:15:02.414Z</time>
      </trkpt>
      <trkpt lat="45.23153" lon="5.8704">
        <ele>220.8</ele>
        <time>2019-10-25T11:15:04.473Z</time>
      </trkpt>
      <trkpt lat="45.23143" lon="5.87071">
        <ele>220.9</ele>
        <time>2019-10-25T11:15:06.131Z</time>
      </trkpt>
      <trkpt lat="45.23139" lon="5.87092">
        <ele>221</ele>
        <time>2019-10-25T11:15:24.757Z</time>
      </trkpt>
      <trkpt lat="45.23137" lon="5.87109">
        <ele>221.1</ele>
        <time>2019-10-25T11:15:29.386Z</time>
      </trkpt>
      <trkpt lat="45.23134" lon="5.87107">
        <ele>221.1</ele>
        <time>2019-10-25T11:15:31.725Z</time>
      </trkpt>
      <trkpt lat="45.23134" lon="5.87166">
        <ele>221.4</ele>
        <time>2019-10-25T11:15:38.439Z</time>
      </trkpt>
      <trkpt lat="45.23133" lon="5.87203">
        <ele>222.3</ele>
        <time>2019-10-25T11:15:44.860Z</time>
      </trkpt>
      <trkpt lat="45.23133" lon="5.87217">
        <ele>222.6</ele>
        <time>2019-10-25T11:16:03.516Z</time>
      </trkpt>
      <trkpt lat="45.23134" lon="5.87268">
        <ele>223.2</ele>
        <time>2019-10-25T11:16:06.183Z</time>
      </trkpt>
      <trkpt lat="45.23134" lon="5.87326">
        <ele>222.5</ele>
        <time>2019-10-25T11:16:42.670Z</time>
      </trkpt>
      <trkpt lat="45.23135" lon="5.8734">
        <ele>222.4</ele>
        <time>2019-10-25T11:16:45.853Z</time>
      </trkpt>
      <trkpt lat="45.23136" lon="5.87345">
        <ele>222.5</ele>
        <time>2019-10-25T11:16:48.301Z</time>
      </trkpt>
      <trkpt lat="45.23139" lon="5.87349">
        <ele>222.5</ele>
        <time>2019-10-25T11:17:45.591Z</time>
      </trkpt>
      <trkpt lat="45.23142" lon="5.87351">
        <ele>222.4</ele>
        <time>2019-10-25T11:17:50.494Z</time>
      </trkpt>
      <trkpt lat="45.23174" lon="5.87378">
        <ele>222.5</ele>
        <time>2019-10-25T11:17:52.553Z</time>
      </trkpt>
      <trkpt lat="45.2318" lon="5.87388">
        <ele>222.7</ele>
        <time>2019-10-25T11:18:15.325Z</time>
      </trkpt>
      <trkpt lat="45.23182" lon="5.87394">
        <ele>222.7</ele>
        <time>2019-10-25T11:18:34.919Z</time>
      </trkpt>
      <trkpt lat="45.23181" lon="5.87413">
        <ele>223</ele>
        <time>2019-10-25T11:18:37.092Z</time>
      </trkpt>
      <trkpt lat="45.23179" lon="5.87431">
        <ele>223</ele>
        <time>2019-10-25T11:18:46.683Z</time>
      </trkpt>
      <trkpt lat="45.23172" lon="5.87483">
        <ele>223.1</ele>
        <time>2019-10-25T11:18:47.907Z</time>
      </trkpt>
      <trkpt lat="45.23176" lon="5.87488">
        <ele>223.1</ele>
        <time>2019-10-25T11:18:57.760Z</time>
      </trkpt>
      <trkpt lat="45.23246" lon="5.87517">
        <ele>224</ele>
        <time>2019-10-25T11:19:21.527Z</time>
      </trkpt>
      <trkpt lat="45.23252" lon="5.8752">
        <ele>224</ele>
        <time>2019-10-25T11:19:29.925Z</time>
      </trkpt>
      <trkpt lat="45.23256" lon="5.87524">
        <ele>223.9</ele>
        <time>2019-10-25T11:19:31.381Z</time>
      </trkpt>
      <trkpt lat="45.23313" lon="5.87665">
        <ele>223.8</ele>
        <time>2019-10-25T11:19:39.186Z</time>
      </trkpt>
      <trkpt lat="45.23319" lon="5.87676">
        <ele>223.9</ele>
        <time>2019-10-25T11:19:41.501Z</time>
      </trkpt>
      <trkpt lat="45.23322" lon="5.8768">
        <ele>224</ele>
        <time>2019-10-25T11:19:52.937Z</time>
      </trkpt>
      <trkpt lat="45.23297" lon="5.87734">
        <ele>224.4</ele>
        <time>2019-10-25T11:20:22.760Z</time>
      </trkpt>
      <trkpt lat="45.23275" lon="5.8778">
        <ele>224.8</ele>
        <time>2019-10-25T11:20:28.486Z</time>
      </trkpt>
      <trkpt lat="45.23276" lon="5.87786">
        <ele>224.9</ele>
        <time>2019-10-25T11:20:46.212Z</time>
      </trkpt>
      <trkpt lat="45.23289" lon="5.87806">
        <ele>225.2</ele>
        <time>2019-10-25T11:20:46.273Z</time>
      </trkpt>
      <trkpt lat="45.23287" lon="5.87808">
        <ele>225.2</ele>
        <time>2019-10-25T11:21:02.946Z</time>
      </trkpt>
      <trkpt lat="45.23274" lon="5.87787">
        <ele>224.9</ele>
        <time>2019-10-25T11:21:08.848Z</time>
      </trkpt>
      <trkpt lat="45.23238" lon="5.87831">
        <ele>225.8</ele>
        <time>2019-10-25T11:21:20.973Z</time>
      </trkpt>
      <trkpt lat="45.23249" lon="5.87849">
        <ele>226.4</ele>
        <time>2019-10-25T11:21:26.627Z</time>
      </trkpt>
      <trkpt lat="45.23247" lon="5.87852">
        <ele>226.4</ele>
        <time>2019-10-25T11:22:16.934Z</time>
      </trkpt>
      <trkpt lat="45.23237" lon="5.87835">
        <ele>225.9</ele>
        <time>2019-10-25T11:22:21.816Z</time>
      </trkpt>
      <trkpt lat="45.23234" lon="5.8783">
        <ele>225.7</ele>
        <time>2019-10-25T11:22:28.712Z</time>
      </trkpt>
      <trkpt lat="45.23252" lon="5.8781">
        <ele>225.4</ele>
        <time>2019-10-25T11:22:37.710Z</time>
      </trkpt>
      <trkpt lat="45.23213" lon="5.87746">
        <ele>224</ele>
        <time>2019-10-25T11:22:43.386Z</time>
      </trkpt>
      <trkpt lat="45.23211" lon="5.8773">
        <ele>223.8</ele>
        <time>2019-10-25T11:22:46.529Z</time>
      </trkpt>
      <trkpt lat="45.23187" lon="5.87693">
        <ele>223.3</ele>
        <time>2019-10-25T11:22:49.646Z</time>
      </trkpt>
      <trkpt lat="45.23187" lon="5.87693">
        <ele>223.3</ele>
        <time>2019-10-25T11:22:52.782Z</time>
      </trkpt>
      <trkpt lat="45.23165" lon="5.87658">
        <ele>223</ele>
        <time>2019-10-25T11:22:56.485Z</time>
      </trkpt>
      <trkpt lat="45.23154" lon="5.87652">
        <ele>223</ele>
        <time>2019-10-25T11:23:00.164Z</time>
      </trkpt>
      <trkpt lat="45.23137" lon="5.87626">
        <ele>223</ele>
        <time>2019-10-25T11:23:03.858Z</time>
      </trkpt>
      <trkpt lat="45.23134" lon="5.87611">
        <ele>223</ele>
        <time>2019-10-25T11:23:06.968Z</time>
      </trkpt>
      <trkpt lat="45.23063" lon="5.8751">
        <ele>223.2</ele>
        <time>2019-10-25T11:23:07.168Z</time>
      </trkpt>
      <trkpt lat="45.23054" lon="5.87505">
        <ele>223.3</ele>
        <time>2019-10-25T11:23:21.130Z</time>
      </trkpt>
      <trkpt lat="45.23044" lon="5.87519">
        <ele>223.4</ele>
        <time>2019-10-25T11:23:36.885Z</time>
      </trkpt>
      <trkpt lat="45.2303" lon="5.87534">
        <ele>223.4</ele>
        <time>2019-10-25T11:25:11.946Z</time>
      </trkpt>
      <trkpt lat="45.23019" lon="5.87535">
        <ele>223.5</ele>
        <time>2019-10-25T11:25:29.329Z</time>
      </trkpt>
      <trkpt lat="45.23016" lon="5.87527">
        <ele>223.5</ele>
        <time>2019-10-25T11:26:04.871Z</time>
      </trkpt>
      <trkpt lat="45.23012" lon="5.8752">
        <ele>223.6</ele>
        <time>2019-10-25T11:26:20.079Z</time>
      </trkpt>
      <trkpt lat="45.23006" lon="5.87517">
        <ele>223.7</ele>
        <time>2019-10-25T11:26:36.049Z</time>
      </trkpt>
      <trkpt lat="45.22999" lon="5.87517">
        <ele>223.8</ele>
        <time>2019-10-25T11:26:55.100Z</time>
      </trkpt>
      <trkpt lat="45.22992" lon="5.87521">
        <ele>223.9</ele>
        <time>2019-10-25T11:27:16.527Z</time>
      </trkpt>
      <trkpt lat="45.22988" lon="5.87529">
        <ele>223.8</ele>
        <time>2019-10-25T11:27:37.142Z</time>
      </trkpt>
      <trkpt lat="45.22982" lon="5.87527">
        <ele>224</ele>
        <time>2019-10-25T11:27:40.550Z</time>
      </trkpt>
      <trkpt lat="45.22982" lon="5.87527">
        <ele>224</ele>
        <time>2019-10-25T11:27:46.967Z</time>
      </trkpt>
      <trkpt lat="45.22955" lon="5.87517">
        <ele>224.7</ele>
        <time>2019-10-25T11:27:54.053Z</time>
      </trkpt>
      <trkpt lat="45.22928" lon="5.87494">
        <ele>225.6</ele>
        <time>2019-10-25T11:28:01.941Z</time>
      </trkpt>
      <trkpt lat="45.22796" lon="5.873">
        <ele>220.5</ele>
        <time>2019-10-25T11:28:05.651Z</time>
      </trkpt>
      <trkpt lat="45.22788" lon="5.87252">
        <ele>219.5</ele>
        <time>2019-10-25T11:28:11.385Z</time>
      </trkpt>
      <trkpt lat="45.22726" lon="5.87204">
        <ele>219.5</ele>
        <time>2019-10-25T11:28:23.810Z</time>
      </trkpt>
      <trkpt lat="45.22695" lon="5.87205">
        <ele>219.5</ele>
        <time>2019-10-25T11:28:38.347Z</time>
      </trkpt>
      <trkpt lat="45.22666" lon="5.87188">
        <ele>219.9</ele>
        <time>2019-10-25T11:29:16.974Z</time>
      </trkpt>
      <trkpt lat="45.22638" lon="5.87151">
        <ele>220.4</ele>
        <time>2019-10-25T11:29:20.195Z</time>
      </trkpt>
      <trkpt lat="45.22599" lon="5.87176">
        <ele>220.5</ele>
        <time>2019-10-25T11:29:22.825Z</time>
      </trkpt>
      <trkpt lat="45.22569" lon="5.87216">
        <ele>221.3</ele>
        <time>2019-10-25T11:29:22.947Z</time>
      </trkpt>
      <trkpt lat="45.22565" lon="5.87224">
        <ele>221.2</ele>
        <time>2019-10-25T11:29:31.455Z</time>
      </trkpt>
      <trkpt lat="45.22556" lon="5.87236">
        <ele>221.3</ele>
        <time>2019-10-25T11:29:35.364Z</time>
      </trkpt>
      <trkpt lat="45.22546" lon="5.87251">
        <ele>220.8</ele>
        <time>2019-10-25T11:29:36.069Z</time>
      </trkpt>
      <trkpt lat="45.22535" lon="5.87267">
        <ele>220.9</ele>
        <time>2019-10-25T11:29:42.053Z</time>
      </trkpt>
      <trkpt lat="45.22529" lon="5.87274">
        <ele>221.9</ele>
        <time>2019-10-25T11:29:52.244Z</time>
      </trkpt>
      <trkpt lat="45.2252" lon="5.87264">
        <ele>222</ele>
        <time>2019-10-25T11:30:15.012Z</time>
      </trkpt>
      <trkpt lat="45.225" lon="5.87243">
        <ele>221.9</ele>
        <time>2019-10-25T11:30:25.967Z</time>
      </trkpt>
      <trkpt lat="45.22477" lon="5.87218">
        <ele>221.4</ele>
        <time>2019-10-25T11:30:40.096Z</time>
      </trkpt>
      <trkpt lat="45.22415" lon="5.87153">
        <ele>221</ele>
        <time>2019-10-25T11:30:45.283Z</time>
      </trkpt>
      <trkpt lat="45.22419" lon="5.87146">
        <ele>221</ele>
        <time>2019-10-25T11:31:22.456Z</time>
      </trkpt>
      <trkpt lat="45.22421" lon="5.87139">
        <ele>221</ele>
        <time>2019-10-25T11:31:39.152Z</time>
      </trkpt>
      <trkpt lat="45.22421" lon="5.87139">
        <ele>221</ele>
        <time>2019-10-25T11:31:57.149Z</time>
      </trkpt>
      <trkpt lat="45.22428" lon="5.87117">
        <ele>221</ele>
        <time>2019-10-25T11:32:12.424Z</time>
      </trkpt>
      <trkpt lat="45.22429" lon="5.87106">
        <ele>221</ele>
        <time>2019-10-25T11:32:13.036Z</time>
      </trkpt>
      <trkpt lat="45.22429" lon="5.87104">
        <ele>221</ele>
        <time>2019-10-25T11:32:13.036Z</time>
      </trkpt>
      <trkpt lat="45.22433" lon="5.87088">
        <ele>221</ele>
        <time>2019-10-25T11:32:18.978Z</time>
      </trkpt>
      <trkpt lat="45.22447" lon="5.87067">
        <ele>221.1</ele>
        <time>2019-10-25T11:32:42.644Z</time>
      </trkpt>
      <trkpt lat="45.2242" lon="5.87015">
        <ele>221.8</ele>
        <time>2019-10-25T11:32:57.195Z</time>
      </trkpt>
      <trkpt lat="45.22408" lon="5.86989">
        <ele>221.9</ele>
        <time>2019-10-25T11:33:08.178Z</time>
      </trkpt>
      <trkpt lat="45.22399" lon="5.86951">
        <ele>221.4</ele>
        <time>2019-10-25T11:33:17.761Z</time>
      </trkpt>
      <trkpt lat="45.22393" lon="5.86939">
        <ele>221.3</ele>
        <time>2019-10-25T11:33:27.743Z</time>
      </trkpt>
      <trkpt lat="45.22351" lon="5.86852">
        <ele>220.1</ele>
        <time>2019-10-25T11:33:38.158Z</time>
      </trkpt>
      <trkpt lat="45.22337" lon="5.86809">
        <ele>220.2</ele>
        <time>2019-10-25T11:33:46.572Z</time>
      </trkpt>
      <trkpt lat="45.2232" lon="5.86764">
        <ele>220.7</ele>
        <time>2019-10-25T11:33:49.632Z</time>
      </trkpt>
      <trkpt lat="45.22303" lon="5.86728">
        <ele>220.2</ele>
        <time>2019-10-25T11:33:53.304Z</time>
      </trkpt>
      <trkpt lat="45.22304" lon="5.86727">
        <ele>220.2</ele>
        <time>2019-10-25T11:34:08.022Z</time>
      </trkpt>
      <trkpt lat="45.22304" lon="5.86727">
        <ele>220.2</ele>
        <time>2019-10-25T11:34:30.740Z</time>
      </trkpt>
      <trkpt lat="45.22313" lon="5.86716">
        <ele>220</ele>
        <time>2019-10-25T11:34:34.254Z</time>
      </trkpt>
      <trkpt lat="45.22288" lon="5.86659">
        <ele>219</ele>
        <time>2019-10-25T11:34:48.440Z</time>
      </trkpt>
      <trkpt lat="45.2231" lon="5.86632">
        <ele>218.7</ele>
        <time>2019-10-25T11:35:04.114Z</time>
      </trkpt>
      <trkpt lat="45.22324" lon="5.86608">
        <ele>218.4</ele>
        <time>2019-10-25T11:35:24.346Z</time>
      </trkpt>
      <trkpt lat="45.22333" lon="5.86584">
        <ele>218</ele>
        <time>2019-10-25T11:35:27.258Z</time>
      </trkpt>
      <trkpt lat="45.22336" lon="5.86556">
        <ele>218.4</ele>
        <time>2019-10-25T11:35:43.530Z</time>
      </trkpt>
      <trkpt lat="45.22332" lon="5.86527">
        <ele>218.7</ele>
        <time>2019-10-25T11:35:43.591Z</time>
      </trkpt>
      <trkpt lat="45.22324" lon="5.86506">
        <ele>219</ele>
        <time>2019-10-25T11:35:52.276Z</time>
      </trkpt>
      <trkpt lat="45.22319" lon="5.86501">
        <ele>219.2</ele>
        <time>2019-10-25T11:35:58.866Z</time>
      </trkpt>
      <trkpt lat="45.22313" lon="5.86495">
        <ele>219.3</ele>
        <time>2019-10-25T11:36:24.094Z</time>
      </trkpt>
      <trkpt lat="45.22288" lon="5.86473">
        <ele>219.5</ele>
        <time>2019-10-25T11:36:51.322Z</time>
      </trkpt>
      <trkpt lat="45.22249" lon="5.8644">
        <ele>219.3</ele>
        <time>2019-10-25T11:36:53.915Z</time>
      </trkpt>
      <trkpt lat="45.22244" lon="5.86433">
        <ele>219.3</ele>
        <time>2019-10-25T11:36:55.792Z</time>
      </trkpt>
      <trkpt lat="45.2223" lon="5.86398">
        <ele>219.6</ele>
        <time>2019-10-25T11:37:09.879Z</time>
      </trkpt>
      <trkpt lat="45.22209" lon="5.86365">
        <ele>220</ele>
        <time>2019-10-25T11:37:17.001Z</time>
      </trkpt>
      <trkpt lat="45.2218" lon="5.86325">
        <ele>220.1</ele>
        <time>2019-10-25T11:37:32.349Z</time>
      </trkpt>
      <trkpt lat="45.22176" lon="5.86319">
        <ele>220.2</ele>
        <time>2019-10-25T11:37:56.073Z</time>
      </trkpt>
      <trkpt lat="45.22154" lon="5.86285">
        <ele>220.7</ele>
        <time>2019-10-25T11:38:09.912Z</time>
      </trkpt>
      <trkpt lat="45.22154" lon="5.86285">
        <ele>220.7</ele>
        <time>2019-10-25T11:38:14.526Z</time>
      </trkpt>
      <trkpt lat="45.22142" lon="5.86267">
        <ele>220.9</ele>
        <time>2019-10-25T11:38:17.262Z</time>
      </trkpt>
      <trkpt lat="45.2213" lon="5.86261">
        <ele>221</ele>
        <time>2019-10-25T11:38:19.649Z</time>
      </trkpt>
      <trkpt lat="45.2208" lon="5.86247">
        <ele>221</ele>
        <time>2019-10-25T11:38:28.084Z</time>
      </trkpt>
      <trkpt lat="45.22027" lon="5.86229">
        <ele>221.3</ele>
        <time>2019-10-25T11:38:33.158Z</time>
      </trkpt>
      <trkpt lat="45.22024" lon="5.86224">
        <ele>221.3</ele>
        <time>2019-10-25T11:38:38.443Z</time>
      </trkpt>
      <trkpt lat="45.22021" lon="5.86221">
        <ele>221.2</ele>
        <time>2019-10-25T11:38:50.097Z</time>
      </trkpt>
      <trkpt lat="45.21995" lon="5.86239">
        <ele>221.8</ele>
        <time>2019-10-25T11:38:59.089Z</time>
      </trkpt>
      <trkpt lat="45.21983" lon="5.86248">
        <ele>222</ele>
        <time>2019-10-25T11:39:12.092Z</time>
      </trkpt>
      <trkpt lat="45.21955" lon="5.86267">
        <ele>221.9</ele>
        <time>2019-10-25T11:39:23.013Z</time>
      </trkpt>
      <trkpt lat="45.2191" lon="5.86287">
        <ele>222.1</ele>
        <time>2019-10-25T11:39:24.537Z</time>
      </trkpt>
      <trkpt lat="45.21883" lon="5.86298">
        <ele>222.4</ele>
        <time>2019-10-25T11:39:35.985Z</time>
      </trkpt>
      <trkpt lat="45.21875" lon="5.86304">
        <ele>222.5</ele>
        <time>2019-10-25T11:39:45.622Z</time>
      </trkpt>
      <trkpt lat="45.2187" lon="5.86306">
        <ele>222.6</ele>
        <time>2019-10-25T11:39:58.797Z</time>
      </trkpt>
      <trkpt lat="45.21866" lon="5.86302">
        <ele>222.6</ele>
        <time>2019-10-25T11:40:02.035Z</time>
      </trkpt>
      <trkpt lat="45.2185" lon="5.86307">
        <ele>222.8</ele>
        <time>2019-10-25T11:40:04.205Z</time>
      </trkpt>
      <trkpt lat="45.2184" lon="5.86303">
        <ele>222.9</ele>
        <time>2019-10-25T11:40:04.240Z</time>
      </trkpt>
      <trkpt lat="45.21832" lon="5.86294">
        <ele>223.1</ele>
        <time>2019-10-25T11:40:06.555Z</time>
      </trkpt>
      <trkpt lat="45.21813" lon="5.86274">
        <ele>224</ele>
        <time>2019-10-25T11:40:09.639Z</time>
      </trkpt>
      <trkpt lat="45.218" lon="5.86257">
        <ele>224.6</ele>
        <time>2019-10-25T11:40:12.641Z</time>
      </trkpt>
      <trkpt lat="45.21783" lon="5.86229">
        <ele>225.4</ele>
        <time>2019-10-25T11:40:15.240Z</time>
      </trkpt>
      <trkpt lat="45.2177" lon="5.86204">
        <ele>225.8</ele>
        <time>2019-10-25T11:40:19.380Z</time>
      </trkpt>
      <trkpt lat="45.21767" lon="5.86206">
        <ele>225.9</ele>
        <time>2019-10-25T11:40:25.062Z</time>
      </trkpt>
      <trkpt lat="45.21756" lon="5.86177">
        <ele>226</ele>
        <time>2019-10-25T11:40:39.803Z</time>
      </trkpt>
      <trkpt lat="45.21749" lon="5.86152">
        <ele>225.5</ele>
        <time>2019-10-25T11:40:55.332Z</time>
      </trkpt>
      <trkpt lat="45.21734" lon="5.86121">
        <ele>224.6</ele>
        <time>2019-10-25T11:41:08.096Z</time>
      </trkpt>
      <trkpt lat="45.21728" lon="5.86119">
        <ele>224.7</ele>
        <time>2019-10-25T11:41:17.356Z</time>
      </trkpt>
      <trkpt lat="45.21725" lon="5.86114">
        <ele>224.5</ele>
        <time>2019-10-25T11:41:22.260Z</time>
      </trkpt>
      <trkpt lat="45.21725" lon="5.86114">
        <ele>224.5</ele>
        <time>2019-10-25T11:41:26.628Z</time>
      </trkpt>
      <trkpt lat="45.21728" lon="5.86119">
        <ele>224.7</ele>
        <time>2019-10-25T11:41:30.693Z</time>
      </trkpt>
      <trkpt lat="45.21734" lon="5.86121">
        <ele>224.6</ele>
        <time>2019-10-25T11:41:37.930Z</time>
      </trkpt>
      <trkpt lat="45.2174" lon="5.86121">
        <ele>224.5</ele>
        <time>2019-10-25T11:41:49.360Z</time>
      </trkpt>
      <trkpt lat="45.21745" lon="5.86119">
        <ele>224.4</ele>
        <time>2019-10-25T11:42:07.863Z</time>
      </trkpt>
      <trkpt lat="45.21753" lon="5.86116">
        <ele>224.1</ele>
        <time>2019-10-25T11:42:23.076Z</time>
      </trkpt>
      <trkpt lat="45.21764" lon="5.86112">
        <ele>223.9</ele>
        <time>2019-10-25T11:42:32.910Z</time>
      </trkpt>
      <trkpt lat="45.21792" lon="5.86099">
        <ele>223.4</ele>
        <time>2019-10-25T11:42:46.780Z</time>
      </trkpt>
      <trkpt lat="45.2182" lon="5.8608">
        <ele>223</ele>
        <time>2019-10-25T11:42:49.095Z</time>
      </trkpt>
      <trkpt lat="45.21837" lon="5.86053">
        <ele>222.6</ele>
        <time>2019-10-25T11:42:58.902Z</time>
      </trkpt>
      <trkpt lat="45.21849" lon="5.86033">
        <ele>222.3</ele>
        <time>2019-10-25T11:43:07.511Z</time>
      </trkpt>
      <trkpt lat="45.21855" lon="5.86022">
        <ele>222.2</ele>
      </trkpt>
      <trkpt lat="45.21861" lon="5.86013">
        <ele>222.1</ele>
      </trkpt>
      <trkpt lat="45.21869" lon="5.86011">
        <ele>222.1</ele>
      </trkpt>
      <trkpt lat="45.21882" lon="5.8602">
        <ele>222.1</ele>
      </trkpt>
      <trkpt lat="45.21901" lon="5.86038">
        <ele>222.1</ele>
      </trkpt>
      <trkpt lat="45.21937" lon="5.8605">
        <ele>221.8</ele>
      </trkpt>
      <trkpt lat="45.21967" lon="5.86057">
        <ele>221.4</ele>
      </trkpt>
      <trkpt lat="45.21984" lon="5.86071">
        <ele>221.2</ele>
      </trkpt>
      <trkpt lat="45.22009" lon="5.86088">
        <ele>220.8</ele>
      </trkpt>
      <trkpt lat="45.22012" lon="5.86093">
        <ele>220.8</ele>
      </trkpt>
      <trkpt lat="45.22024" lon="5.86115">
        <ele>220.6</ele>
      </trkpt>
      <trkpt lat="45.22037" lon="5.86131">
        <ele>220.5</ele>
      </trkpt>
    </trkseg>
  </trk>
</gpx>